<?xml version="1.0" encoding="UTF-8" standalone="no" ?>
<gpx xmlns="http://www.topografix.com/GPX/1/1" xmlns:xsi="http://www.w3.org/2001/XMLSchema-instance" xsi:schemaLocation="http://www.topografix.com/GPX/1/1 http://www.topografix.com/GPX/1/1/gpx.xsd" version="1.1" creator="VisuGPX - https://www.visugpx.com">
  <metadata>
    <name>Séguret : Tour du Mont Bayon</name>
    <desc><![CDATA[Boucle sans difficultés effectuée le 01 décembre 2018]]></desc>
  </metadata>
  <trk>
    <name><![CDATA[20181202114250-PCNbl]]></name>
    <trkseg>
      <trkpt lat="44.20804" lon="5.02445">
        <ele>241</ele>
        <time>2018-12-01T08:50:32 01:00</time>
      </trkpt>
      <trkpt lat="44.20805" lon="5.02445">
        <ele>241</ele>
        <time>2018-12-01T08:50:55 01:00</time>
      </trkpt>
      <trkpt lat="44.20804" lon="5.02438">
        <ele>241</ele>
        <time>2018-12-01T08:51:26 01:00</time>
      </trkpt>
      <trkpt lat="44.20802" lon="5.02426">
        <ele>241</ele>
        <time>2018-12-01T08:51:35 01:00</time>
      </trkpt>
      <trkpt lat="44.20799" lon="5.0242">
        <ele>240</ele>
        <time>2018-12-01T08:51:49 01:00</time>
      </trkpt>
      <trkpt lat="44.20796" lon="5.02418">
        <ele>239</ele>
        <time>2018-12-01T08:52:02 01:00</time>
      </trkpt>
      <trkpt lat="44.20784" lon="5.02424">
        <ele>236</ele>
        <time>2018-12-01T08:52:20 01:00</time>
      </trkpt>
      <trkpt lat="44.20783" lon="5.02423">
        <ele>236</ele>
        <time>2018-12-01T08:52:21 01:00</time>
      </trkpt>
      <trkpt lat="44.20769" lon="5.02412">
        <ele>236</ele>
        <time>2018-12-01T08:52:36 01:00</time>
      </trkpt>
      <trkpt lat="44.20766" lon="5.02407">
        <ele>237</ele>
        <time>2018-12-01T08:52:40 01:00</time>
      </trkpt>
      <trkpt lat="44.20762" lon="5.024">
        <ele>237</ele>
        <time>2018-12-01T08:52:46 01:00</time>
      </trkpt>
      <trkpt lat="44.20751" lon="5.02382">
        <ele>235</ele>
        <time>2018-12-01T08:53:01 01:00</time>
      </trkpt>
      <trkpt lat="44.2074" lon="5.02365">
        <ele>237</ele>
        <time>2018-12-01T08:53:15 01:00</time>
      </trkpt>
      <trkpt lat="44.20725" lon="5.02351">
        <ele>241</ele>
        <time>2018-12-01T08:53:32 01:00</time>
      </trkpt>
      <trkpt lat="44.20715" lon="5.02342">
        <ele>243</ele>
        <time>2018-12-01T08:53:44 01:00</time>
      </trkpt>
      <trkpt lat="44.20698" lon="5.02319">
        <ele>243</ele>
        <time>2018-12-01T08:54:01 01:00</time>
      </trkpt>
      <trkpt lat="44.20685" lon="5.02303">
        <ele>243</ele>
        <time>2018-12-01T08:54:14 01:00</time>
      </trkpt>
      <trkpt lat="44.20666" lon="5.02283">
        <ele>243</ele>
        <time>2018-12-01T08:54:32 01:00</time>
      </trkpt>
      <trkpt lat="44.20649" lon="5.0227">
        <ele>242</ele>
        <time>2018-12-01T08:54:48 01:00</time>
      </trkpt>
      <trkpt lat="44.20632" lon="5.02271">
        <ele>244</ele>
        <time>2018-12-01T08:55:03 01:00</time>
      </trkpt>
      <trkpt lat="44.20627" lon="5.02273">
        <ele>245</ele>
        <time>2018-12-01T08:55:09 01:00</time>
      </trkpt>
      <trkpt lat="44.20614" lon="5.02276">
        <ele>245</ele>
        <time>2018-12-01T08:55:20 01:00</time>
      </trkpt>
      <trkpt lat="44.20603" lon="5.02279">
        <ele>245</ele>
        <time>2018-12-01T08:55:29 01:00</time>
      </trkpt>
      <trkpt lat="44.20593" lon="5.02289">
        <ele>248</ele>
        <time>2018-12-01T08:55:42 01:00</time>
      </trkpt>
      <trkpt lat="44.20577" lon="5.02297">
        <ele>250</ele>
        <time>2018-12-01T08:55:56 01:00</time>
      </trkpt>
      <trkpt lat="44.20559" lon="5.02297">
        <ele>247</ele>
        <time>2018-12-01T08:56:10 01:00</time>
      </trkpt>
      <trkpt lat="44.20548" lon="5.02296">
        <ele>246</ele>
        <time>2018-12-01T08:56:19 01:00</time>
      </trkpt>
      <trkpt lat="44.20534" lon="5.02294">
        <ele>244</ele>
        <time>2018-12-01T08:56:35 01:00</time>
      </trkpt>
      <trkpt lat="44.20513" lon="5.023">
        <ele>245</ele>
        <time>2018-12-01T08:56:55 01:00</time>
      </trkpt>
      <trkpt lat="44.20492" lon="5.02305">
        <ele>246</ele>
        <time>2018-12-01T08:57:13 01:00</time>
      </trkpt>
      <trkpt lat="44.20483" lon="5.02307">
        <ele>245</ele>
        <time>2018-12-01T08:57:20 01:00</time>
      </trkpt>
      <trkpt lat="44.20457" lon="5.02305">
        <ele>242</ele>
        <time>2018-12-01T08:57:41 01:00</time>
      </trkpt>
      <trkpt lat="44.20433" lon="5.02306">
        <ele>238</ele>
        <time>2018-12-01T08:57:59 01:00</time>
      </trkpt>
      <trkpt lat="44.20411" lon="5.02315">
        <ele>235</ele>
        <time>2018-12-01T08:58:20 01:00</time>
      </trkpt>
      <trkpt lat="44.204" lon="5.02336">
        <ele>234</ele>
        <time>2018-12-01T08:58:37 01:00</time>
      </trkpt>
      <trkpt lat="44.20395" lon="5.0236">
        <ele>235</ele>
        <time>2018-12-01T08:58:54 01:00</time>
      </trkpt>
      <trkpt lat="44.20389" lon="5.02387">
        <ele>235</ele>
        <time>2018-12-01T08:59:11 01:00</time>
      </trkpt>
      <trkpt lat="44.20383" lon="5.0241">
        <ele>235</ele>
        <time>2018-12-01T08:59:29 01:00</time>
      </trkpt>
      <trkpt lat="44.2037" lon="5.02408">
        <ele>231</ele>
        <time>2018-12-01T08:59:44 01:00</time>
      </trkpt>
      <trkpt lat="44.20362" lon="5.02407">
        <ele>229</ele>
        <time>2018-12-01T08:59:52 01:00</time>
      </trkpt>
      <trkpt lat="44.20339" lon="5.02404">
        <ele>223</ele>
        <time>2018-12-01T09:00:13 01:00</time>
      </trkpt>
      <trkpt lat="44.2032" lon="5.024">
        <ele>219</ele>
        <time>2018-12-01T09:00:30 01:00</time>
      </trkpt>
      <trkpt lat="44.20299" lon="5.02399">
        <ele>216</ele>
        <time>2018-12-01T09:00:48 01:00</time>
      </trkpt>
      <trkpt lat="44.20279" lon="5.02408">
        <ele>216</ele>
        <time>2018-12-01T09:01:06 01:00</time>
      </trkpt>
      <trkpt lat="44.20273" lon="5.02401">
        <ele>216</ele>
        <time>2018-12-01T09:01:14 01:00</time>
      </trkpt>
      <trkpt lat="44.20266" lon="5.02391">
        <ele>217</ele>
        <time>2018-12-01T09:01:22 01:00</time>
      </trkpt>
      <trkpt lat="44.20254" lon="5.0237">
        <ele>216</ele>
        <time>2018-12-01T09:01:39 01:00</time>
      </trkpt>
      <trkpt lat="44.20242" lon="5.02347">
        <ele>215</ele>
        <time>2018-12-01T09:01:56 01:00</time>
      </trkpt>
      <trkpt lat="44.20228" lon="5.02342">
        <ele>217</ele>
        <time>2018-12-01T09:03:45 01:00</time>
      </trkpt>
      <trkpt lat="44.20217" lon="5.02352">
        <ele>222</ele>
        <time>2018-12-01T09:03:57 01:00</time>
      </trkpt>
      <trkpt lat="44.20214" lon="5.02355">
        <ele>223</ele>
        <time>2018-12-01T09:04:01 01:00</time>
      </trkpt>
      <trkpt lat="44.20195" lon="5.02362">
        <ele>227</ele>
        <time>2018-12-01T09:04:18 01:00</time>
      </trkpt>
      <trkpt lat="44.20183" lon="5.02362">
        <ele>228</ele>
        <time>2018-12-01T09:04:30 01:00</time>
      </trkpt>
      <trkpt lat="44.20167" lon="5.02364">
        <ele>228</ele>
        <time>2018-12-01T09:04:48 01:00</time>
      </trkpt>
      <trkpt lat="44.20149" lon="5.02366">
        <ele>229</ele>
        <time>2018-12-01T09:05:05 01:00</time>
      </trkpt>
      <trkpt lat="44.20132" lon="5.02367">
        <ele>230</ele>
        <time>2018-12-01T09:05:22 01:00</time>
      </trkpt>
      <trkpt lat="44.20112" lon="5.02367">
        <ele>231</ele>
        <time>2018-12-01T09:05:40 01:00</time>
      </trkpt>
      <trkpt lat="44.20097" lon="5.02361">
        <ele>230</ele>
        <time>2018-12-01T09:05:56 01:00</time>
      </trkpt>
      <trkpt lat="44.20079" lon="5.02355">
        <ele>231</ele>
        <time>2018-12-01T09:06:12 01:00</time>
      </trkpt>
      <trkpt lat="44.20059" lon="5.02345">
        <ele>231</ele>
        <time>2018-12-01T09:06:31 01:00</time>
      </trkpt>
      <trkpt lat="44.20045" lon="5.02336">
        <ele>230</ele>
        <time>2018-12-01T09:06:47 01:00</time>
      </trkpt>
      <trkpt lat="44.20029" lon="5.02327">
        <ele>229</ele>
        <time>2018-12-01T09:07:05 01:00</time>
      </trkpt>
      <trkpt lat="44.20019" lon="5.02322">
        <ele>229</ele>
        <time>2018-12-01T09:07:14 01:00</time>
      </trkpt>
      <trkpt lat="44.19992" lon="5.0231">
        <ele>229</ele>
        <time>2018-12-01T09:07:36 01:00</time>
      </trkpt>
      <trkpt lat="44.19969" lon="5.02302">
        <ele>229</ele>
        <time>2018-12-01T09:07:55 01:00</time>
      </trkpt>
      <trkpt lat="44.1996" lon="5.02299">
        <ele>229</ele>
        <time>2018-12-01T09:08:04 01:00</time>
      </trkpt>
      <trkpt lat="44.19936" lon="5.02298">
        <ele>230</ele>
        <time>2018-12-01T09:08:24 01:00</time>
      </trkpt>
      <trkpt lat="44.19918" lon="5.02299">
        <ele>231</ele>
        <time>2018-12-01T09:08:40 01:00</time>
      </trkpt>
      <trkpt lat="44.19907" lon="5.02299">
        <ele>231</ele>
        <time>2018-12-01T09:08:55 01:00</time>
      </trkpt>
      <trkpt lat="44.19884" lon="5.02306">
        <ele>233</ele>
        <time>2018-12-01T09:09:16 01:00</time>
      </trkpt>
      <trkpt lat="44.19864" lon="5.02314">
        <ele>234</ele>
        <time>2018-12-01T09:09:35 01:00</time>
      </trkpt>
      <trkpt lat="44.19843" lon="5.02315">
        <ele>234</ele>
        <time>2018-12-01T09:09:54 01:00</time>
      </trkpt>
      <trkpt lat="44.19828" lon="5.02316">
        <ele>234</ele>
        <time>2018-12-01T09:10:09 01:00</time>
      </trkpt>
      <trkpt lat="44.19823" lon="5.02316">
        <ele>234</ele>
        <time>2018-12-01T09:10:14 01:00</time>
      </trkpt>
      <trkpt lat="44.19801" lon="5.02319">
        <ele>234</ele>
        <time>2018-12-01T09:10:34 01:00</time>
      </trkpt>
      <trkpt lat="44.19779" lon="5.02322">
        <ele>234</ele>
        <time>2018-12-01T09:10:53 01:00</time>
      </trkpt>
      <trkpt lat="44.19761" lon="5.02329">
        <ele>234</ele>
        <time>2018-12-01T09:11:11 01:00</time>
      </trkpt>
      <trkpt lat="44.19756" lon="5.0233">
        <ele>234</ele>
        <time>2018-12-01T09:11:16 01:00</time>
      </trkpt>
      <trkpt lat="44.19731" lon="5.02336">
        <ele>232</ele>
        <time>2018-12-01T09:11:38 01:00</time>
      </trkpt>
      <trkpt lat="44.19716" lon="5.02335">
        <ele>231</ele>
        <time>2018-12-01T09:11:55 01:00</time>
      </trkpt>
      <trkpt lat="44.197" lon="5.02334">
        <ele>230</ele>
        <time>2018-12-01T09:12:09 01:00</time>
      </trkpt>
      <trkpt lat="44.19678" lon="5.02336">
        <ele>229</ele>
        <time>2018-12-01T09:12:28 01:00</time>
      </trkpt>
      <trkpt lat="44.19656" lon="5.0234">
        <ele>228</ele>
        <time>2018-12-01T09:12:46 01:00</time>
      </trkpt>
      <trkpt lat="44.19638" lon="5.02343">
        <ele>227</ele>
        <time>2018-12-01T09:13:04 01:00</time>
      </trkpt>
      <trkpt lat="44.19621" lon="5.02346">
        <ele>227</ele>
        <time>2018-12-01T09:13:22 01:00</time>
      </trkpt>
      <trkpt lat="44.19605" lon="5.02347">
        <ele>227</ele>
        <time>2018-12-01T09:13:37 01:00</time>
      </trkpt>
      <trkpt lat="44.19582" lon="5.02348">
        <ele>226</ele>
        <time>2018-12-01T09:13:59 01:00</time>
      </trkpt>
      <trkpt lat="44.19564" lon="5.02349">
        <ele>226</ele>
        <time>2018-12-01T09:14:18 01:00</time>
      </trkpt>
      <trkpt lat="44.19543" lon="5.02348">
        <ele>225</ele>
        <time>2018-12-01T09:14:37 01:00</time>
      </trkpt>
      <trkpt lat="44.19528" lon="5.02345">
        <ele>225</ele>
        <time>2018-12-01T09:14:53 01:00</time>
      </trkpt>
      <trkpt lat="44.19508" lon="5.02342">
        <ele>225</ele>
        <time>2018-12-01T09:15:13 01:00</time>
      </trkpt>
      <trkpt lat="44.19482" lon="5.02336">
        <ele>227</ele>
        <time>2018-12-01T09:15:33 01:00</time>
      </trkpt>
      <trkpt lat="44.1948" lon="5.02336">
        <ele>227</ele>
        <time>2018-12-01T09:15:34 01:00</time>
      </trkpt>
      <trkpt lat="44.19459" lon="5.02331">
        <ele>230</ele>
        <time>2018-12-01T09:15:51 01:00</time>
      </trkpt>
      <trkpt lat="44.19452" lon="5.02332">
        <ele>232</ele>
        <time>2018-12-01T09:16:02 01:00</time>
      </trkpt>
      <trkpt lat="44.19445" lon="5.0233">
        <ele>233</ele>
        <time>2018-12-01T09:16:08 01:00</time>
      </trkpt>
      <trkpt lat="44.19429" lon="5.02322">
        <ele>235</ele>
        <time>2018-12-01T09:16:23 01:00</time>
      </trkpt>
      <trkpt lat="44.19409" lon="5.0231">
        <ele>237</ele>
        <time>2018-12-01T09:16:43 01:00</time>
      </trkpt>
      <trkpt lat="44.19395" lon="5.02302">
        <ele>238</ele>
        <time>2018-12-01T09:16:57 01:00</time>
      </trkpt>
      <trkpt lat="44.19377" lon="5.02292">
        <ele>239</ele>
        <time>2018-12-01T09:17:15 01:00</time>
      </trkpt>
      <trkpt lat="44.19363" lon="5.02286">
        <ele>239</ele>
        <time>2018-12-01T09:17:31 01:00</time>
      </trkpt>
      <trkpt lat="44.1935" lon="5.02285">
        <ele>240</ele>
        <time>2018-12-01T09:17:47 01:00</time>
      </trkpt>
      <trkpt lat="44.19331" lon="5.02281">
        <ele>240</ele>
        <time>2018-12-01T09:18:05 01:00</time>
      </trkpt>
      <trkpt lat="44.19327" lon="5.02281">
        <ele>240</ele>
        <time>2018-12-01T09:18:09 01:00</time>
      </trkpt>
      <trkpt lat="44.19313" lon="5.0228">
        <ele>241</ele>
        <time>2018-12-01T09:18:24 01:00</time>
      </trkpt>
      <trkpt lat="44.19307" lon="5.02278">
        <ele>241</ele>
        <time>2018-12-01T09:18:30 01:00</time>
      </trkpt>
      <trkpt lat="44.19288" lon="5.0227">
        <ele>240</ele>
        <time>2018-12-01T09:18:47 01:00</time>
      </trkpt>
      <trkpt lat="44.19272" lon="5.02259">
        <ele>239</ele>
        <time>2018-12-01T09:19:03 01:00</time>
      </trkpt>
      <trkpt lat="44.1927" lon="5.02258">
        <ele>239</ele>
        <time>2018-12-01T09:19:25 01:00</time>
      </trkpt>
      <trkpt lat="44.19267" lon="5.02256">
        <ele>238</ele>
        <time>2018-12-01T09:19:42 01:00</time>
      </trkpt>
      <trkpt lat="44.19257" lon="5.02256">
        <ele>239</ele>
        <time>2018-12-01T09:20:08 01:00</time>
      </trkpt>
      <trkpt lat="44.19245" lon="5.02255">
        <ele>239</ele>
        <time>2018-12-01T09:20:23 01:00</time>
      </trkpt>
      <trkpt lat="44.19226" lon="5.02252">
        <ele>239</ele>
        <time>2018-12-01T09:20:39 01:00</time>
      </trkpt>
      <trkpt lat="44.19206" lon="5.02246">
        <ele>239</ele>
        <time>2018-12-01T09:20:57 01:00</time>
      </trkpt>
      <trkpt lat="44.1919" lon="5.02244">
        <ele>239</ele>
        <time>2018-12-01T09:21:13 01:00</time>
      </trkpt>
      <trkpt lat="44.19172" lon="5.02245">
        <ele>241</ele>
        <time>2018-12-01T09:21:30 01:00</time>
      </trkpt>
      <trkpt lat="44.19162" lon="5.02247">
        <ele>241</ele>
        <time>2018-12-01T09:21:46 01:00</time>
      </trkpt>
      <trkpt lat="44.1915" lon="5.02245">
        <ele>241</ele>
        <time>2018-12-01T09:22:00 01:00</time>
      </trkpt>
      <trkpt lat="44.19134" lon="5.02247">
        <ele>241</ele>
        <time>2018-12-01T09:22:17 01:00</time>
      </trkpt>
      <trkpt lat="44.19111" lon="5.02247">
        <ele>241</ele>
        <time>2018-12-01T09:22:37 01:00</time>
      </trkpt>
      <trkpt lat="44.19096" lon="5.02248">
        <ele>241</ele>
        <time>2018-12-01T09:22:50 01:00</time>
      </trkpt>
      <trkpt lat="44.19074" lon="5.02247">
        <ele>241</ele>
        <time>2018-12-01T09:23:08 01:00</time>
      </trkpt>
      <trkpt lat="44.1906" lon="5.02247">
        <ele>241</ele>
        <time>2018-12-01T09:23:23 01:00</time>
      </trkpt>
      <trkpt lat="44.19049" lon="5.02252">
        <ele>241</ele>
        <time>2018-12-01T09:23:36 01:00</time>
      </trkpt>
      <trkpt lat="44.19039" lon="5.02258">
        <ele>242</ele>
        <time>2018-12-01T09:23:46 01:00</time>
      </trkpt>
      <trkpt lat="44.1903" lon="5.02265">
        <ele>242</ele>
        <time>2018-12-01T09:23:56 01:00</time>
      </trkpt>
      <trkpt lat="44.19016" lon="5.02271">
        <ele>243</ele>
        <time>2018-12-01T09:24:14 01:00</time>
      </trkpt>
      <trkpt lat="44.18996" lon="5.02272">
        <ele>243</ele>
        <time>2018-12-01T09:24:31 01:00</time>
      </trkpt>
      <trkpt lat="44.18993" lon="5.02272">
        <ele>243</ele>
        <time>2018-12-01T09:24:34 01:00</time>
      </trkpt>
      <trkpt lat="44.18981" lon="5.02258">
        <ele>242</ele>
        <time>2018-12-01T09:24:47 01:00</time>
      </trkpt>
      <trkpt lat="44.18972" lon="5.02242">
        <ele>240</ele>
        <time>2018-12-01T09:25:03 01:00</time>
      </trkpt>
      <trkpt lat="44.18963" lon="5.02245">
        <ele>241</ele>
        <time>2018-12-01T09:25:15 01:00</time>
      </trkpt>
      <trkpt lat="44.18944" lon="5.02246">
        <ele>241</ele>
        <time>2018-12-01T09:25:33 01:00</time>
      </trkpt>
      <trkpt lat="44.18929" lon="5.02246">
        <ele>243</ele>
        <time>2018-12-01T09:25:51 01:00</time>
      </trkpt>
      <trkpt lat="44.18925" lon="5.02246">
        <ele>243</ele>
        <time>2018-12-01T09:25:56 01:00</time>
      </trkpt>
      <trkpt lat="44.1891" lon="5.02247">
        <ele>244</ele>
        <time>2018-12-01T09:26:13 01:00</time>
      </trkpt>
      <trkpt lat="44.18894" lon="5.02246">
        <ele>244</ele>
        <time>2018-12-01T09:26:30 01:00</time>
      </trkpt>
      <trkpt lat="44.18891" lon="5.02245">
        <ele>244</ele>
        <time>2018-12-01T09:26:33 01:00</time>
      </trkpt>
      <trkpt lat="44.18868" lon="5.02241">
        <ele>244</ele>
        <time>2018-12-01T09:26:52 01:00</time>
      </trkpt>
      <trkpt lat="44.1885" lon="5.02243">
        <ele>246</ele>
        <time>2018-12-01T09:27:09 01:00</time>
      </trkpt>
      <trkpt lat="44.18829" lon="5.02244">
        <ele>247</ele>
        <time>2018-12-01T09:27:30 01:00</time>
      </trkpt>
      <trkpt lat="44.18813" lon="5.02248">
        <ele>248</ele>
        <time>2018-12-01T09:27:46 01:00</time>
      </trkpt>
      <trkpt lat="44.18801" lon="5.02257">
        <ele>249</ele>
        <time>2018-12-01T09:28:00 01:00</time>
      </trkpt>
      <trkpt lat="44.18787" lon="5.02271">
        <ele>251</ele>
        <time>2018-12-01T09:28:17 01:00</time>
      </trkpt>
      <trkpt lat="44.18777" lon="5.02282">
        <ele>253</ele>
        <time>2018-12-01T09:28:31 01:00</time>
      </trkpt>
      <trkpt lat="44.18759" lon="5.02297">
        <ele>255</ele>
        <time>2018-12-01T09:28:49 01:00</time>
      </trkpt>
      <trkpt lat="44.1875" lon="5.02298">
        <ele>255</ele>
        <time>2018-12-01T09:28:56 01:00</time>
      </trkpt>
      <trkpt lat="44.18735" lon="5.02286">
        <ele>253</ele>
        <time>2018-12-01T09:29:13 01:00</time>
      </trkpt>
      <trkpt lat="44.18728" lon="5.02284">
        <ele>253</ele>
        <time>2018-12-01T09:29:20 01:00</time>
      </trkpt>
      <trkpt lat="44.18705" lon="5.02283">
        <ele>255</ele>
        <time>2018-12-01T09:29:42 01:00</time>
      </trkpt>
      <trkpt lat="44.18686" lon="5.02274">
        <ele>256</ele>
        <time>2018-12-01T09:30:01 01:00</time>
      </trkpt>
      <trkpt lat="44.18676" lon="5.0227">
        <ele>257</ele>
        <time>2018-12-01T09:30:14 01:00</time>
      </trkpt>
      <trkpt lat="44.18672" lon="5.02267">
        <ele>258</ele>
        <time>2018-12-01T09:30:29 01:00</time>
      </trkpt>
      <trkpt lat="44.18669" lon="5.02265">
        <ele>258</ele>
        <time>2018-12-01T09:30:47 01:00</time>
      </trkpt>
      <trkpt lat="44.18667" lon="5.0227">
        <ele>259</ele>
        <time>2018-12-01T09:31:55 01:00</time>
      </trkpt>
      <trkpt lat="44.18662" lon="5.02279">
        <ele>260</ele>
        <time>2018-12-01T09:32:09 01:00</time>
      </trkpt>
      <trkpt lat="44.18655" lon="5.02291">
        <ele>263</ele>
        <time>2018-12-01T09:32:24 01:00</time>
      </trkpt>
      <trkpt lat="44.18646" lon="5.023">
        <ele>265</ele>
        <time>2018-12-01T09:32:37 01:00</time>
      </trkpt>
      <trkpt lat="44.18639" lon="5.02321">
        <ele>268</ele>
        <time>2018-12-01T09:32:52 01:00</time>
      </trkpt>
      <trkpt lat="44.1863" lon="5.02336">
        <ele>269</ele>
        <time>2018-12-01T09:33:07 01:00</time>
      </trkpt>
      <trkpt lat="44.18625" lon="5.02341">
        <ele>270</ele>
        <time>2018-12-01T09:33:13 01:00</time>
      </trkpt>
      <trkpt lat="44.18621" lon="5.02343">
        <ele>270</ele>
        <time>2018-12-01T09:33:16 01:00</time>
      </trkpt>
      <trkpt lat="44.1861" lon="5.0235">
        <ele>272</ele>
        <time>2018-12-01T09:33:30 01:00</time>
      </trkpt>
      <trkpt lat="44.18595" lon="5.02351">
        <ele>274</ele>
        <time>2018-12-01T09:33:46 01:00</time>
      </trkpt>
      <trkpt lat="44.18587" lon="5.02352">
        <ele>275</ele>
        <time>2018-12-01T09:33:53 01:00</time>
      </trkpt>
      <trkpt lat="44.18572" lon="5.02354">
        <ele>278</ele>
        <time>2018-12-01T09:34:06 01:00</time>
      </trkpt>
      <trkpt lat="44.18561" lon="5.02359">
        <ele>279</ele>
        <time>2018-12-01T09:34:19 01:00</time>
      </trkpt>
      <trkpt lat="44.18552" lon="5.02362">
        <ele>281</ele>
        <time>2018-12-01T09:34:30 01:00</time>
      </trkpt>
      <trkpt lat="44.18547" lon="5.02367">
        <ele>283</ele>
        <time>2018-12-01T09:34:37 01:00</time>
      </trkpt>
      <trkpt lat="44.18537" lon="5.02376">
        <ele>286</ele>
        <time>2018-12-01T09:34:52 01:00</time>
      </trkpt>
      <trkpt lat="44.18526" lon="5.02382">
        <ele>288</ele>
        <time>2018-12-01T09:35:04 01:00</time>
      </trkpt>
      <trkpt lat="44.1852" lon="5.02385">
        <ele>288</ele>
        <time>2018-12-01T09:35:12 01:00</time>
      </trkpt>
      <trkpt lat="44.18507" lon="5.02387">
        <ele>289</ele>
        <time>2018-12-01T09:35:26 01:00</time>
      </trkpt>
      <trkpt lat="44.18504" lon="5.02388">
        <ele>289</ele>
        <time>2018-12-01T09:35:29 01:00</time>
      </trkpt>
      <trkpt lat="44.1849" lon="5.02393">
        <ele>292</ele>
        <time>2018-12-01T09:35:40 01:00</time>
      </trkpt>
      <trkpt lat="44.1848" lon="5.02398">
        <ele>293</ele>
        <time>2018-12-01T09:35:50 01:00</time>
      </trkpt>
      <trkpt lat="44.18475" lon="5.02399">
        <ele>294</ele>
        <time>2018-12-01T09:35:55 01:00</time>
      </trkpt>
      <trkpt lat="44.18462" lon="5.02405">
        <ele>296</ele>
        <time>2018-12-01T09:36:11 01:00</time>
      </trkpt>
      <trkpt lat="44.18452" lon="5.0241">
        <ele>297</ele>
        <time>2018-12-01T09:36:23 01:00</time>
      </trkpt>
      <trkpt lat="44.1844" lon="5.02411">
        <ele>296</ele>
        <time>2018-12-01T09:36:37 01:00</time>
      </trkpt>
      <trkpt lat="44.18432" lon="5.02416">
        <ele>294</ele>
        <time>2018-12-01T09:36:45 01:00</time>
      </trkpt>
      <trkpt lat="44.18416" lon="5.02417">
        <ele>290</ele>
        <time>2018-12-01T09:36:59 01:00</time>
      </trkpt>
      <trkpt lat="44.18411" lon="5.02418">
        <ele>290</ele>
        <time>2018-12-01T09:37:14 01:00</time>
      </trkpt>
      <trkpt lat="44.18404" lon="5.02419">
        <ele>289</ele>
        <time>2018-12-01T09:39:40 01:00</time>
      </trkpt>
      <trkpt lat="44.18392" lon="5.02435">
        <ele>290</ele>
        <time>2018-12-01T09:39:53 01:00</time>
      </trkpt>
      <trkpt lat="44.18375" lon="5.02451">
        <ele>291</ele>
        <time>2018-12-01T09:40:11 01:00</time>
      </trkpt>
      <trkpt lat="44.18364" lon="5.02463">
        <ele>292</ele>
        <time>2018-12-01T09:40:24 01:00</time>
      </trkpt>
      <trkpt lat="44.1835" lon="5.02479">
        <ele>294</ele>
        <time>2018-12-01T09:40:40 01:00</time>
      </trkpt>
      <trkpt lat="44.18344" lon="5.02485">
        <ele>294</ele>
        <time>2018-12-01T09:40:46 01:00</time>
      </trkpt>
      <trkpt lat="44.18325" lon="5.02501">
        <ele>293</ele>
        <time>2018-12-01T09:41:04 01:00</time>
      </trkpt>
      <trkpt lat="44.18312" lon="5.02514">
        <ele>294</ele>
        <time>2018-12-01T09:41:18 01:00</time>
      </trkpt>
      <trkpt lat="44.18307" lon="5.02521">
        <ele>294</ele>
        <time>2018-12-01T09:41:23 01:00</time>
      </trkpt>
      <trkpt lat="44.18291" lon="5.02537">
        <ele>293</ele>
        <time>2018-12-01T09:41:42 01:00</time>
      </trkpt>
      <trkpt lat="44.18279" lon="5.02558">
        <ele>292</ele>
        <time>2018-12-01T09:41:58 01:00</time>
      </trkpt>
      <trkpt lat="44.18269" lon="5.02577">
        <ele>292</ele>
        <time>2018-12-01T09:42:13 01:00</time>
      </trkpt>
      <trkpt lat="44.18267" lon="5.0258">
        <ele>292</ele>
        <time>2018-12-01T09:42:15 01:00</time>
      </trkpt>
      <trkpt lat="44.18266" lon="5.02602">
        <ele>294</ele>
        <time>2018-12-01T09:42:28 01:00</time>
      </trkpt>
      <trkpt lat="44.18264" lon="5.02618">
        <ele>295</ele>
        <time>2018-12-01T09:42:41 01:00</time>
      </trkpt>
      <trkpt lat="44.18266" lon="5.02624">
        <ele>296</ele>
        <time>2018-12-01T09:42:58 01:00</time>
      </trkpt>
      <trkpt lat="44.1826" lon="5.02636">
        <ele>294</ele>
        <time>2018-12-01T09:43:12 01:00</time>
      </trkpt>
      <trkpt lat="44.18254" lon="5.02643">
        <ele>291</ele>
        <time>2018-12-01T09:43:32 01:00</time>
      </trkpt>
      <trkpt lat="44.18243" lon="5.02656">
        <ele>286</ele>
        <time>2018-12-01T09:43:47 01:00</time>
      </trkpt>
      <trkpt lat="44.18248" lon="5.02677">
        <ele>285</ele>
        <time>2018-12-01T09:44:06 01:00</time>
      </trkpt>
      <trkpt lat="44.18264" lon="5.02683">
        <ele>287</ele>
        <time>2018-12-01T09:44:21 01:00</time>
      </trkpt>
      <trkpt lat="44.18282" lon="5.02689">
        <ele>289</ele>
        <time>2018-12-01T09:44:38 01:00</time>
      </trkpt>
      <trkpt lat="44.18299" lon="5.02695">
        <ele>289</ele>
        <time>2018-12-01T09:44:57 01:00</time>
      </trkpt>
      <trkpt lat="44.18317" lon="5.02705">
        <ele>288</ele>
        <time>2018-12-01T09:45:14 01:00</time>
      </trkpt>
      <trkpt lat="44.18331" lon="5.02719">
        <ele>285</ele>
        <time>2018-12-01T09:45:30 01:00</time>
      </trkpt>
      <trkpt lat="44.1834" lon="5.02728">
        <ele>283</ele>
        <time>2018-12-01T09:45:40 01:00</time>
      </trkpt>
      <trkpt lat="44.18356" lon="5.02735">
        <ele>283</ele>
        <time>2018-12-01T09:45:55 01:00</time>
      </trkpt>
      <trkpt lat="44.18369" lon="5.02741">
        <ele>284</ele>
        <time>2018-12-01T09:46:10 01:00</time>
      </trkpt>
      <trkpt lat="44.18375" lon="5.02744">
        <ele>284</ele>
        <time>2018-12-01T09:46:16 01:00</time>
      </trkpt>
      <trkpt lat="44.18388" lon="5.02747">
        <ele>285</ele>
        <time>2018-12-01T09:46:28 01:00</time>
      </trkpt>
      <trkpt lat="44.18404" lon="5.02758">
        <ele>283</ele>
        <time>2018-12-01T09:46:44 01:00</time>
      </trkpt>
      <trkpt lat="44.18421" lon="5.02772">
        <ele>283</ele>
        <time>2018-12-01T09:47:00 01:00</time>
      </trkpt>
      <trkpt lat="44.18434" lon="5.02784">
        <ele>282</ele>
        <time>2018-12-01T09:47:14 01:00</time>
      </trkpt>
      <trkpt lat="44.18448" lon="5.02805">
        <ele>279</ele>
        <time>2018-12-01T09:47:29 01:00</time>
      </trkpt>
      <trkpt lat="44.18463" lon="5.02821">
        <ele>280</ele>
        <time>2018-12-01T09:47:45 01:00</time>
      </trkpt>
      <trkpt lat="44.18477" lon="5.02842">
        <ele>283</ele>
        <time>2018-12-01T09:48:03 01:00</time>
      </trkpt>
      <trkpt lat="44.18481" lon="5.0285">
        <ele>284</ele>
        <time>2018-12-01T09:48:09 01:00</time>
      </trkpt>
      <trkpt lat="44.18491" lon="5.02874">
        <ele>285</ele>
        <time>2018-12-01T09:48:25 01:00</time>
      </trkpt>
      <trkpt lat="44.18498" lon="5.0289">
        <ele>285</ele>
        <time>2018-12-01T09:48:38 01:00</time>
      </trkpt>
      <trkpt lat="44.18511" lon="5.0291">
        <ele>287</ele>
        <time>2018-12-01T09:48:57 01:00</time>
      </trkpt>
      <trkpt lat="44.18519" lon="5.02926">
        <ele>287</ele>
        <time>2018-12-01T09:49:12 01:00</time>
      </trkpt>
      <trkpt lat="44.18527" lon="5.02935">
        <ele>288</ele>
        <time>2018-12-01T09:49:20 01:00</time>
      </trkpt>
      <trkpt lat="44.18537" lon="5.02955">
        <ele>290</ele>
        <time>2018-12-01T09:49:37 01:00</time>
      </trkpt>
      <trkpt lat="44.18547" lon="5.02971">
        <ele>291</ele>
        <time>2018-12-01T09:49:51 01:00</time>
      </trkpt>
      <trkpt lat="44.18553" lon="5.02983">
        <ele>292</ele>
        <time>2018-12-01T09:50:01 01:00</time>
      </trkpt>
      <trkpt lat="44.18572" lon="5.03004">
        <ele>293</ele>
        <time>2018-12-01T09:50:21 01:00</time>
      </trkpt>
      <trkpt lat="44.1859" lon="5.03023">
        <ele>294</ele>
        <time>2018-12-01T09:50:40 01:00</time>
      </trkpt>
      <trkpt lat="44.1861" lon="5.03039">
        <ele>294</ele>
        <time>2018-12-01T09:51:00 01:00</time>
      </trkpt>
      <trkpt lat="44.18639" lon="5.03067">
        <ele>286</ele>
        <time>2018-12-01T09:52:10 01:00</time>
      </trkpt>
      <trkpt lat="44.18649" lon="5.03069">
        <ele>285</ele>
        <time>2018-12-01T09:52:30 01:00</time>
      </trkpt>
      <trkpt lat="44.18654" lon="5.0307">
        <ele>285</ele>
        <time>2018-12-01T09:52:34 01:00</time>
      </trkpt>
      <trkpt lat="44.1868" lon="5.0308">
        <ele>282</ele>
        <time>2018-12-01T09:52:54 01:00</time>
      </trkpt>
      <trkpt lat="44.18698" lon="5.03085">
        <ele>282</ele>
        <time>2018-12-01T09:53:10 01:00</time>
      </trkpt>
      <trkpt lat="44.18718" lon="5.03092">
        <ele>282</ele>
        <time>2018-12-01T09:53:28 01:00</time>
      </trkpt>
      <trkpt lat="44.18733" lon="5.03094">
        <ele>283</ele>
        <time>2018-12-01T09:53:41 01:00</time>
      </trkpt>
      <trkpt lat="44.18754" lon="5.03097">
        <ele>285</ele>
        <time>2018-12-01T09:54:00 01:00</time>
      </trkpt>
      <trkpt lat="44.18774" lon="5.03104">
        <ele>290</ele>
        <time>2018-12-01T09:54:17 01:00</time>
      </trkpt>
      <trkpt lat="44.18791" lon="5.0312">
        <ele>293</ele>
        <time>2018-12-01T09:54:35 01:00</time>
      </trkpt>
      <trkpt lat="44.18795" lon="5.03125">
        <ele>294</ele>
        <time>2018-12-01T09:54:40 01:00</time>
      </trkpt>
      <trkpt lat="44.18797" lon="5.03128">
        <ele>294</ele>
        <time>2018-12-01T09:54:42 01:00</time>
      </trkpt>
      <trkpt lat="44.1881" lon="5.03148">
        <ele>295</ele>
        <time>2018-12-01T09:55:00 01:00</time>
      </trkpt>
      <trkpt lat="44.18828" lon="5.03159">
        <ele>295</ele>
        <time>2018-12-01T09:55:19 01:00</time>
      </trkpt>
      <trkpt lat="44.1884" lon="5.03163">
        <ele>294</ele>
        <time>2018-12-01T09:55:33 01:00</time>
      </trkpt>
      <trkpt lat="44.18856" lon="5.03165">
        <ele>293</ele>
        <time>2018-12-01T09:55:50 01:00</time>
      </trkpt>
      <trkpt lat="44.1887" lon="5.03165">
        <ele>291</ele>
        <time>2018-12-01T09:56:04 01:00</time>
      </trkpt>
      <trkpt lat="44.18893" lon="5.03172">
        <ele>289</ele>
        <time>2018-12-01T09:56:23 01:00</time>
      </trkpt>
      <trkpt lat="44.18912" lon="5.03186">
        <ele>293</ele>
        <time>2018-12-01T09:56:41 01:00</time>
      </trkpt>
      <trkpt lat="44.1892" lon="5.03206">
        <ele>292</ele>
        <time>2018-12-01T09:56:58 01:00</time>
      </trkpt>
      <trkpt lat="44.18922" lon="5.03221">
        <ele>291</ele>
        <time>2018-12-01T09:57:10 01:00</time>
      </trkpt>
      <trkpt lat="44.18932" lon="5.03247">
        <ele>290</ele>
        <time>2018-12-01T09:57:30 01:00</time>
      </trkpt>
      <trkpt lat="44.18938" lon="5.03259">
        <ele>290</ele>
        <time>2018-12-01T09:57:43 01:00</time>
      </trkpt>
      <trkpt lat="44.18951" lon="5.03282">
        <ele>289</ele>
        <time>2018-12-01T09:58:01 01:00</time>
      </trkpt>
      <trkpt lat="44.1896" lon="5.033">
        <ele>289</ele>
        <time>2018-12-01T09:58:16 01:00</time>
      </trkpt>
      <trkpt lat="44.18963" lon="5.03312">
        <ele>288</ele>
        <time>2018-12-01T09:58:25 01:00</time>
      </trkpt>
      <trkpt lat="44.18969" lon="5.03344">
        <ele>286</ele>
        <time>2018-12-01T09:58:46 01:00</time>
      </trkpt>
      <trkpt lat="44.1897" lon="5.0337">
        <ele>284</ele>
        <time>2018-12-01T09:59:04 01:00</time>
      </trkpt>
      <trkpt lat="44.18971" lon="5.03378">
        <ele>283</ele>
        <time>2018-12-01T10:03:52 01:00</time>
      </trkpt>
      <trkpt lat="44.1897" lon="5.03388">
        <ele>282</ele>
        <time>2018-12-01T10:04:47 01:00</time>
      </trkpt>
      <trkpt lat="44.1897" lon="5.03392">
        <ele>281</ele>
        <time>2018-12-01T10:04:55 01:00</time>
      </trkpt>
      <trkpt lat="44.18977" lon="5.03417">
        <ele>280</ele>
        <time>2018-12-01T10:05:13 01:00</time>
      </trkpt>
      <trkpt lat="44.18979" lon="5.03425">
        <ele>279</ele>
        <time>2018-12-01T10:05:18 01:00</time>
      </trkpt>
      <trkpt lat="44.18986" lon="5.0345">
        <ele>279</ele>
        <time>2018-12-01T10:05:36 01:00</time>
      </trkpt>
      <trkpt lat="44.18996" lon="5.03475">
        <ele>279</ele>
        <time>2018-12-01T10:05:55 01:00</time>
      </trkpt>
      <trkpt lat="44.18997" lon="5.03478">
        <ele>279</ele>
        <time>2018-12-01T10:06:08 01:00</time>
      </trkpt>
      <trkpt lat="44.19004" lon="5.03507">
        <ele>280</ele>
        <time>2018-12-01T10:06:28 01:00</time>
      </trkpt>
      <trkpt lat="44.19013" lon="5.03535">
        <ele>280</ele>
        <time>2018-12-01T10:06:47 01:00</time>
      </trkpt>
      <trkpt lat="44.19015" lon="5.03545">
        <ele>280</ele>
        <time>2018-12-01T10:07:00 01:00</time>
      </trkpt>
      <trkpt lat="44.19017" lon="5.03558">
        <ele>280</ele>
        <time>2018-12-01T10:07:10 01:00</time>
      </trkpt>
      <trkpt lat="44.19017" lon="5.03564">
        <ele>280</ele>
        <time>2018-12-01T10:07:14 01:00</time>
      </trkpt>
      <trkpt lat="44.19018" lon="5.0357">
        <ele>280</ele>
        <time>2018-12-01T10:07:18 01:00</time>
      </trkpt>
      <trkpt lat="44.19019" lon="5.03575">
        <ele>280</ele>
        <time>2018-12-01T10:07:22 01:00</time>
      </trkpt>
      <trkpt lat="44.19021" lon="5.03583">
        <ele>280</ele>
        <time>2018-12-01T10:07:29 01:00</time>
      </trkpt>
      <trkpt lat="44.19021" lon="5.03587">
        <ele>280</ele>
        <time>2018-12-01T10:07:32 01:00</time>
      </trkpt>
      <trkpt lat="44.19026" lon="5.036">
        <ele>281</ele>
        <time>2018-12-01T10:07:44 01:00</time>
      </trkpt>
      <trkpt lat="44.19032" lon="5.03618">
        <ele>282</ele>
        <time>2018-12-01T10:07:58 01:00</time>
      </trkpt>
      <trkpt lat="44.19033" lon="5.03621">
        <ele>283</ele>
        <time>2018-12-01T10:08:02 01:00</time>
      </trkpt>
      <trkpt lat="44.19033" lon="5.03624">
        <ele>283</ele>
        <time>2018-12-01T10:08:04 01:00</time>
      </trkpt>
      <trkpt lat="44.19037" lon="5.03647">
        <ele>284</ele>
        <time>2018-12-01T10:08:19 01:00</time>
      </trkpt>
      <trkpt lat="44.1904" lon="5.03662">
        <ele>285</ele>
        <time>2018-12-01T10:08:33 01:00</time>
      </trkpt>
      <trkpt lat="44.19046" lon="5.03682">
        <ele>287</ele>
        <time>2018-12-01T10:08:50 01:00</time>
      </trkpt>
      <trkpt lat="44.19046" lon="5.03698">
        <ele>289</ele>
        <time>2018-12-01T10:09:05 01:00</time>
      </trkpt>
      <trkpt lat="44.19055" lon="5.03716">
        <ele>292</ele>
        <time>2018-12-01T10:09:23 01:00</time>
      </trkpt>
      <trkpt lat="44.19071" lon="5.03733">
        <ele>292</ele>
        <time>2018-12-01T10:09:42 01:00</time>
      </trkpt>
      <trkpt lat="44.19085" lon="5.03746">
        <ele>293</ele>
        <time>2018-12-01T10:09:58 01:00</time>
      </trkpt>
      <trkpt lat="44.191" lon="5.03761">
        <ele>294</ele>
        <time>2018-12-01T10:10:17 01:00</time>
      </trkpt>
      <trkpt lat="44.19114" lon="5.03775">
        <ele>294</ele>
        <time>2018-12-01T10:10:34 01:00</time>
      </trkpt>
      <trkpt lat="44.19117" lon="5.03795">
        <ele>295</ele>
        <time>2018-12-01T10:10:51 01:00</time>
      </trkpt>
      <trkpt lat="44.19112" lon="5.03794">
        <ele>296</ele>
        <time>2018-12-01T10:11:03 01:00</time>
      </trkpt>
      <trkpt lat="44.19105" lon="5.03808">
        <ele>297</ele>
        <time>2018-12-01T10:11:16 01:00</time>
      </trkpt>
      <trkpt lat="44.19093" lon="5.03823">
        <ele>298</ele>
        <time>2018-12-01T10:11:32 01:00</time>
      </trkpt>
      <trkpt lat="44.19074" lon="5.03837">
        <ele>299</ele>
        <time>2018-12-01T10:11:51 01:00</time>
      </trkpt>
      <trkpt lat="44.19071" lon="5.0384">
        <ele>299</ele>
        <time>2018-12-01T10:11:55 01:00</time>
      </trkpt>
      <trkpt lat="44.19062" lon="5.03844">
        <ele>299</ele>
        <time>2018-12-01T10:12:04 01:00</time>
      </trkpt>
      <trkpt lat="44.19048" lon="5.03856">
        <ele>301</ele>
        <time>2018-12-01T10:12:19 01:00</time>
      </trkpt>
      <trkpt lat="44.19039" lon="5.03872">
        <ele>303</ele>
        <time>2018-12-01T10:12:33 01:00</time>
      </trkpt>
      <trkpt lat="44.19036" lon="5.03887">
        <ele>304</ele>
        <time>2018-12-01T10:12:44 01:00</time>
      </trkpt>
      <trkpt lat="44.1903" lon="5.039">
        <ele>306</ele>
        <time>2018-12-01T10:12:57 01:00</time>
      </trkpt>
      <trkpt lat="44.19027" lon="5.03906">
        <ele>306</ele>
        <time>2018-12-01T10:13:03 01:00</time>
      </trkpt>
      <trkpt lat="44.19018" lon="5.03918">
        <ele>307</ele>
        <time>2018-12-01T10:13:16 01:00</time>
      </trkpt>
      <trkpt lat="44.19011" lon="5.03917">
        <ele>308</ele>
        <time>2018-12-01T10:13:22 01:00</time>
      </trkpt>
      <trkpt lat="44.19005" lon="5.03919">
        <ele>308</ele>
        <time>2018-12-01T10:13:39 01:00</time>
      </trkpt>
      <trkpt lat="44.19003" lon="5.0392">
        <ele>308</ele>
        <time>2018-12-01T10:14:00 01:00</time>
      </trkpt>
      <trkpt lat="44.18997" lon="5.03925">
        <ele>308</ele>
        <time>2018-12-01T10:14:25 01:00</time>
      </trkpt>
      <trkpt lat="44.1899" lon="5.03933">
        <ele>309</ele>
        <time>2018-12-01T10:14:35 01:00</time>
      </trkpt>
      <trkpt lat="44.18982" lon="5.03964">
        <ele>310</ele>
        <time>2018-12-01T10:14:56 01:00</time>
      </trkpt>
      <trkpt lat="44.18983" lon="5.03987">
        <ele>310</ele>
        <time>2018-12-01T10:15:13 01:00</time>
      </trkpt>
      <trkpt lat="44.1899" lon="5.03998">
        <ele>310</ele>
        <time>2018-12-01T10:15:28 01:00</time>
      </trkpt>
      <trkpt lat="44.18991" lon="5.03999">
        <ele>310</ele>
        <time>2018-12-01T10:15:29 01:00</time>
      </trkpt>
      <trkpt lat="44.19005" lon="5.04008">
        <ele>311</ele>
        <time>2018-12-01T10:15:44 01:00</time>
      </trkpt>
      <trkpt lat="44.19016" lon="5.04014">
        <ele>312</ele>
        <time>2018-12-01T10:16:01 01:00</time>
      </trkpt>
      <trkpt lat="44.19026" lon="5.04014">
        <ele>312</ele>
        <time>2018-12-01T10:16:15 01:00</time>
      </trkpt>
      <trkpt lat="44.19038" lon="5.04018">
        <ele>313</ele>
        <time>2018-12-01T10:16:29 01:00</time>
      </trkpt>
      <trkpt lat="44.19049" lon="5.04027">
        <ele>315</ele>
        <time>2018-12-01T10:16:44 01:00</time>
      </trkpt>
      <trkpt lat="44.1906" lon="5.04041">
        <ele>317</ele>
        <time>2018-12-01T10:17:01 01:00</time>
      </trkpt>
      <trkpt lat="44.19071" lon="5.04053">
        <ele>319</ele>
        <time>2018-12-01T10:17:17 01:00</time>
      </trkpt>
      <trkpt lat="44.19082" lon="5.04062">
        <ele>320</ele>
        <time>2018-12-01T10:17:31 01:00</time>
      </trkpt>
      <trkpt lat="44.19088" lon="5.0407">
        <ele>320</ele>
        <time>2018-12-01T10:17:45 01:00</time>
      </trkpt>
      <trkpt lat="44.19103" lon="5.04085">
        <ele>320</ele>
        <time>2018-12-01T10:18:02 01:00</time>
      </trkpt>
      <trkpt lat="44.19112" lon="5.04098">
        <ele>320</ele>
        <time>2018-12-01T10:18:19 01:00</time>
      </trkpt>
      <trkpt lat="44.19125" lon="5.0411">
        <ele>321</ele>
        <time>2018-12-01T10:18:37 01:00</time>
      </trkpt>
      <trkpt lat="44.19135" lon="5.04124">
        <ele>323</ele>
        <time>2018-12-01T10:18:53 01:00</time>
      </trkpt>
      <trkpt lat="44.19137" lon="5.04126">
        <ele>324</ele>
        <time>2018-12-01T10:19:06 01:00</time>
      </trkpt>
      <trkpt lat="44.19145" lon="5.04136">
        <ele>326</ele>
        <time>2018-12-01T10:19:23 01:00</time>
      </trkpt>
      <trkpt lat="44.19153" lon="5.04143">
        <ele>328</ele>
        <time>2018-12-01T10:19:36 01:00</time>
      </trkpt>
      <trkpt lat="44.19165" lon="5.04157">
        <ele>332</ele>
        <time>2018-12-01T10:19:54 01:00</time>
      </trkpt>
      <trkpt lat="44.19173" lon="5.04175">
        <ele>335</ele>
        <time>2018-12-01T10:20:11 01:00</time>
      </trkpt>
      <trkpt lat="44.19181" lon="5.04197">
        <ele>338</ele>
        <time>2018-12-01T10:20:30 01:00</time>
      </trkpt>
      <trkpt lat="44.19191" lon="5.04212">
        <ele>340</ele>
        <time>2018-12-01T10:20:48 01:00</time>
      </trkpt>
      <trkpt lat="44.19201" lon="5.04222">
        <ele>342</ele>
        <time>2018-12-01T10:21:02 01:00</time>
      </trkpt>
      <trkpt lat="44.19217" lon="5.04236">
        <ele>344</ele>
        <time>2018-12-01T10:21:20 01:00</time>
      </trkpt>
      <trkpt lat="44.19232" lon="5.04248">
        <ele>346</ele>
        <time>2018-12-01T10:21:38 01:00</time>
      </trkpt>
      <trkpt lat="44.19244" lon="5.04257">
        <ele>347</ele>
        <time>2018-12-01T10:21:54 01:00</time>
      </trkpt>
      <trkpt lat="44.19256" lon="5.04271">
        <ele>347</ele>
        <time>2018-12-01T10:22:08 01:00</time>
      </trkpt>
      <trkpt lat="44.19265" lon="5.04284">
        <ele>347</ele>
        <time>2018-12-01T10:22:22 01:00</time>
      </trkpt>
      <trkpt lat="44.19274" lon="5.04303">
        <ele>347</ele>
        <time>2018-12-01T10:22:39 01:00</time>
      </trkpt>
      <trkpt lat="44.19275" lon="5.04318">
        <ele>348</ele>
        <time>2018-12-01T10:22:52 01:00</time>
      </trkpt>
      <trkpt lat="44.19271" lon="5.0433">
        <ele>351</ele>
        <time>2018-12-01T10:23:02 01:00</time>
      </trkpt>
      <trkpt lat="44.19268" lon="5.04352">
        <ele>355</ele>
        <time>2018-12-01T10:23:16 01:00</time>
      </trkpt>
      <trkpt lat="44.19268" lon="5.04369">
        <ele>357</ele>
        <time>2018-12-01T10:23:30 01:00</time>
      </trkpt>
      <trkpt lat="44.19267" lon="5.04386">
        <ele>360</ele>
        <time>2018-12-01T10:23:44 01:00</time>
      </trkpt>
      <trkpt lat="44.19268" lon="5.04398">
        <ele>362</ele>
        <time>2018-12-01T10:23:54 01:00</time>
      </trkpt>
      <trkpt lat="44.19273" lon="5.04413">
        <ele>363</ele>
        <time>2018-12-01T10:24:06 01:00</time>
      </trkpt>
      <trkpt lat="44.19284" lon="5.04411">
        <ele>365</ele>
        <time>2018-12-01T10:24:20 01:00</time>
      </trkpt>
      <trkpt lat="44.19293" lon="5.044">
        <ele>365</ele>
        <time>2018-12-01T10:24:33 01:00</time>
      </trkpt>
      <trkpt lat="44.19305" lon="5.04391">
        <ele>367</ele>
        <time>2018-12-01T10:24:47 01:00</time>
      </trkpt>
      <trkpt lat="44.19319" lon="5.04384">
        <ele>368</ele>
        <time>2018-12-01T10:25:05 01:00</time>
      </trkpt>
      <trkpt lat="44.19337" lon="5.04374">
        <ele>370</ele>
        <time>2018-12-01T10:25:24 01:00</time>
      </trkpt>
      <trkpt lat="44.19348" lon="5.04366">
        <ele>371</ele>
        <time>2018-12-01T10:25:38 01:00</time>
      </trkpt>
      <trkpt lat="44.19361" lon="5.04354">
        <ele>371</ele>
        <time>2018-12-01T10:25:54 01:00</time>
      </trkpt>
      <trkpt lat="44.19369" lon="5.04346">
        <ele>371</ele>
        <time>2018-12-01T10:26:04 01:00</time>
      </trkpt>
      <trkpt lat="44.19382" lon="5.04337">
        <ele>372</ele>
        <time>2018-12-01T10:26:20 01:00</time>
      </trkpt>
      <trkpt lat="44.19399" lon="5.0433">
        <ele>374</ele>
        <time>2018-12-01T10:26:39 01:00</time>
      </trkpt>
      <trkpt lat="44.19416" lon="5.04323">
        <ele>376</ele>
        <time>2018-12-01T10:26:59 01:00</time>
      </trkpt>
      <trkpt lat="44.19427" lon="5.04323">
        <ele>376</ele>
        <time>2018-12-01T10:27:10 01:00</time>
      </trkpt>
      <trkpt lat="44.19432" lon="5.04325">
        <ele>377</ele>
        <time>2018-12-01T10:27:15 01:00</time>
      </trkpt>
      <trkpt lat="44.19447" lon="5.04332">
        <ele>379</ele>
        <time>2018-12-01T10:27:30 01:00</time>
      </trkpt>
      <trkpt lat="44.19456" lon="5.04341">
        <ele>379</ele>
        <time>2018-12-01T10:27:43 01:00</time>
      </trkpt>
      <trkpt lat="44.19472" lon="5.04354">
        <ele>380</ele>
        <time>2018-12-01T10:28:00 01:00</time>
      </trkpt>
      <trkpt lat="44.19481" lon="5.04366">
        <ele>380</ele>
        <time>2018-12-01T10:28:15 01:00</time>
      </trkpt>
      <trkpt lat="44.1949" lon="5.04379">
        <ele>380</ele>
        <time>2018-12-01T10:28:29 01:00</time>
      </trkpt>
      <trkpt lat="44.19499" lon="5.04396">
        <ele>382</ele>
        <time>2018-12-01T10:28:44 01:00</time>
      </trkpt>
      <trkpt lat="44.19509" lon="5.0441">
        <ele>384</ele>
        <time>2018-12-01T10:28:58 01:00</time>
      </trkpt>
      <trkpt lat="44.19516" lon="5.04418">
        <ele>385</ele>
        <time>2018-12-01T10:29:07 01:00</time>
      </trkpt>
      <trkpt lat="44.19525" lon="5.04432">
        <ele>388</ele>
        <time>2018-12-01T10:29:21 01:00</time>
      </trkpt>
      <trkpt lat="44.19534" lon="5.04447">
        <ele>391</ele>
        <time>2018-12-01T10:29:38 01:00</time>
      </trkpt>
      <trkpt lat="44.19542" lon="5.04458">
        <ele>392</ele>
        <time>2018-12-01T10:29:50 01:00</time>
      </trkpt>
      <trkpt lat="44.1955" lon="5.04471">
        <ele>393</ele>
        <time>2018-12-01T10:30:04 01:00</time>
      </trkpt>
      <trkpt lat="44.19558" lon="5.04483">
        <ele>394</ele>
        <time>2018-12-01T10:30:17 01:00</time>
      </trkpt>
      <trkpt lat="44.19571" lon="5.04496">
        <ele>396</ele>
        <time>2018-12-01T10:30:33 01:00</time>
      </trkpt>
      <trkpt lat="44.19584" lon="5.04506">
        <ele>397</ele>
        <time>2018-12-01T10:30:51 01:00</time>
      </trkpt>
      <trkpt lat="44.19596" lon="5.04512">
        <ele>399</ele>
        <time>2018-12-01T10:31:06 01:00</time>
      </trkpt>
      <trkpt lat="44.1961" lon="5.04519">
        <ele>400</ele>
        <time>2018-12-01T10:31:21 01:00</time>
      </trkpt>
      <trkpt lat="44.19623" lon="5.04526">
        <ele>401</ele>
        <time>2018-12-01T10:31:36 01:00</time>
      </trkpt>
      <trkpt lat="44.19637" lon="5.0454">
        <ele>403</ele>
        <time>2018-12-01T10:31:53 01:00</time>
      </trkpt>
      <trkpt lat="44.19649" lon="5.0456">
        <ele>404</ele>
        <time>2018-12-01T10:32:13 01:00</time>
      </trkpt>
      <trkpt lat="44.19657" lon="5.04575">
        <ele>404</ele>
        <time>2018-12-01T10:32:29 01:00</time>
      </trkpt>
      <trkpt lat="44.1966" lon="5.04582">
        <ele>404</ele>
        <time>2018-12-01T10:32:35 01:00</time>
      </trkpt>
      <trkpt lat="44.19661" lon="5.04585">
        <ele>404</ele>
        <time>2018-12-01T10:32:39 01:00</time>
      </trkpt>
      <trkpt lat="44.19664" lon="5.04601">
        <ele>405</ele>
        <time>2018-12-01T10:32:51 01:00</time>
      </trkpt>
      <trkpt lat="44.19666" lon="5.04619">
        <ele>407</ele>
        <time>2018-12-01T10:33:05 01:00</time>
      </trkpt>
      <trkpt lat="44.19663" lon="5.04635">
        <ele>408</ele>
        <time>2018-12-01T10:33:20 01:00</time>
      </trkpt>
      <trkpt lat="44.1966" lon="5.04644">
        <ele>410</ele>
        <time>2018-12-01T10:33:27 01:00</time>
      </trkpt>
      <trkpt lat="44.19659" lon="5.04649">
        <ele>410</ele>
        <time>2018-12-01T10:33:30 01:00</time>
      </trkpt>
      <trkpt lat="44.19652" lon="5.04669">
        <ele>414</ele>
        <time>2018-12-01T10:33:46 01:00</time>
      </trkpt>
      <trkpt lat="44.19648" lon="5.04681">
        <ele>416</ele>
        <time>2018-12-01T10:33:58 01:00</time>
      </trkpt>
      <trkpt lat="44.19648" lon="5.04702">
        <ele>419</ele>
        <time>2018-12-01T10:34:15 01:00</time>
      </trkpt>
      <trkpt lat="44.19649" lon="5.04705">
        <ele>419</ele>
        <time>2018-12-01T10:34:18 01:00</time>
      </trkpt>
      <trkpt lat="44.19653" lon="5.04711">
        <ele>420</ele>
        <time>2018-12-01T10:34:24 01:00</time>
      </trkpt>
      <trkpt lat="44.1967" lon="5.04717">
        <ele>420</ele>
        <time>2018-12-01T10:34:43 01:00</time>
      </trkpt>
      <trkpt lat="44.19684" lon="5.04721">
        <ele>419</ele>
        <time>2018-12-01T10:34:59 01:00</time>
      </trkpt>
      <trkpt lat="44.19693" lon="5.04731">
        <ele>420</ele>
        <time>2018-12-01T10:35:13 01:00</time>
      </trkpt>
      <trkpt lat="44.19702" lon="5.04751">
        <ele>424</ele>
        <time>2018-12-01T10:35:31 01:00</time>
      </trkpt>
      <trkpt lat="44.19707" lon="5.04768">
        <ele>426</ele>
        <time>2018-12-01T10:35:46 01:00</time>
      </trkpt>
      <trkpt lat="44.19712" lon="5.04785">
        <ele>429</ele>
        <time>2018-12-01T10:36:00 01:00</time>
      </trkpt>
      <trkpt lat="44.19727" lon="5.04802">
        <ele>432</ele>
        <time>2018-12-01T10:36:15 01:00</time>
      </trkpt>
      <trkpt lat="44.19733" lon="5.04799">
        <ele>433</ele>
        <time>2018-12-01T10:36:25 01:00</time>
      </trkpt>
      <trkpt lat="44.19746" lon="5.04781">
        <ele>434</ele>
        <time>2018-12-01T10:36:43 01:00</time>
      </trkpt>
      <trkpt lat="44.19757" lon="5.04762">
        <ele>435</ele>
        <time>2018-12-01T10:37:00 01:00</time>
      </trkpt>
      <trkpt lat="44.19769" lon="5.04739">
        <ele>436</ele>
        <time>2018-12-01T10:37:20 01:00</time>
      </trkpt>
      <trkpt lat="44.19769" lon="5.04738">
        <ele>436</ele>
        <time>2018-12-01T10:37:21 01:00</time>
      </trkpt>
      <trkpt lat="44.19778" lon="5.04717">
        <ele>437</ele>
        <time>2018-12-01T10:37:39 01:00</time>
      </trkpt>
      <trkpt lat="44.19782" lon="5.0471">
        <ele>437</ele>
        <time>2018-12-01T10:37:48 01:00</time>
      </trkpt>
      <trkpt lat="44.19784" lon="5.04707">
        <ele>437</ele>
        <time>2018-12-01T10:37:51 01:00</time>
      </trkpt>
      <trkpt lat="44.19788" lon="5.04697">
        <ele>437</ele>
        <time>2018-12-01T10:38:06 01:00</time>
      </trkpt>
      <trkpt lat="44.19791" lon="5.04691">
        <ele>437</ele>
        <time>2018-12-01T10:38:19 01:00</time>
      </trkpt>
      <trkpt lat="44.19802" lon="5.04676">
        <ele>437</ele>
        <time>2018-12-01T10:38:35 01:00</time>
      </trkpt>
      <trkpt lat="44.19812" lon="5.04671">
        <ele>439</ele>
        <time>2018-12-01T10:38:48 01:00</time>
      </trkpt>
      <trkpt lat="44.19823" lon="5.04665">
        <ele>441</ele>
        <time>2018-12-01T10:38:59 01:00</time>
      </trkpt>
      <trkpt lat="44.19837" lon="5.04659">
        <ele>443</ele>
        <time>2018-12-01T10:39:14 01:00</time>
      </trkpt>
      <trkpt lat="44.1985" lon="5.04656">
        <ele>444</ele>
        <time>2018-12-01T10:39:28 01:00</time>
      </trkpt>
      <trkpt lat="44.1986" lon="5.04654">
        <ele>445</ele>
        <time>2018-12-01T10:39:41 01:00</time>
      </trkpt>
      <trkpt lat="44.19876" lon="5.04651">
        <ele>446</ele>
        <time>2018-12-01T10:39:55 01:00</time>
      </trkpt>
      <trkpt lat="44.19897" lon="5.04649">
        <ele>448</ele>
        <time>2018-12-01T10:40:14 01:00</time>
      </trkpt>
      <trkpt lat="44.19905" lon="5.0465">
        <ele>448</ele>
        <time>2018-12-01T10:40:22 01:00</time>
      </trkpt>
      <trkpt lat="44.19913" lon="5.04653">
        <ele>449</ele>
        <time>2018-12-01T10:40:34 01:00</time>
      </trkpt>
      <trkpt lat="44.19926" lon="5.04659">
        <ele>450</ele>
        <time>2018-12-01T10:40:49 01:00</time>
      </trkpt>
      <trkpt lat="44.19942" lon="5.0467">
        <ele>451</ele>
        <time>2018-12-01T10:41:08 01:00</time>
      </trkpt>
      <trkpt lat="44.19958" lon="5.04685">
        <ele>453</ele>
        <time>2018-12-01T10:41:25 01:00</time>
      </trkpt>
      <trkpt lat="44.19971" lon="5.04687">
        <ele>454</ele>
        <time>2018-12-01T10:41:40 01:00</time>
      </trkpt>
      <trkpt lat="44.19981" lon="5.04683">
        <ele>453</ele>
        <time>2018-12-01T10:41:55 01:00</time>
      </trkpt>
      <trkpt lat="44.19984" lon="5.04683">
        <ele>453</ele>
        <time>2018-12-01T10:41:58 01:00</time>
      </trkpt>
      <trkpt lat="44.20001" lon="5.0468">
        <ele>451</ele>
        <time>2018-12-01T10:42:16 01:00</time>
      </trkpt>
      <trkpt lat="44.20011" lon="5.04677">
        <ele>450</ele>
        <time>2018-12-01T10:42:27 01:00</time>
      </trkpt>
      <trkpt lat="44.20028" lon="5.04675">
        <ele>448</ele>
        <time>2018-12-01T10:42:43 01:00</time>
      </trkpt>
      <trkpt lat="44.2003" lon="5.04674">
        <ele>448</ele>
        <time>2018-12-01T10:42:45 01:00</time>
      </trkpt>
      <trkpt lat="44.20044" lon="5.04672">
        <ele>447</ele>
        <time>2018-12-01T10:43:00 01:00</time>
      </trkpt>
      <trkpt lat="44.2006" lon="5.04665">
        <ele>446</ele>
        <time>2018-12-01T10:43:19 01:00</time>
      </trkpt>
      <trkpt lat="44.20071" lon="5.0466">
        <ele>445</ele>
        <time>2018-12-01T10:43:35 01:00</time>
      </trkpt>
      <trkpt lat="44.20084" lon="5.04655">
        <ele>444</ele>
        <time>2018-12-01T10:43:50 01:00</time>
      </trkpt>
      <trkpt lat="44.20099" lon="5.0465">
        <ele>443</ele>
        <time>2018-12-01T10:44:08 01:00</time>
      </trkpt>
      <trkpt lat="44.20114" lon="5.04641">
        <ele>442</ele>
        <time>2018-12-01T10:44:25 01:00</time>
      </trkpt>
      <trkpt lat="44.20124" lon="5.04635">
        <ele>441</ele>
        <time>2018-12-01T10:44:39 01:00</time>
      </trkpt>
      <trkpt lat="44.20135" lon="5.04631">
        <ele>441</ele>
        <time>2018-12-01T10:44:55 01:00</time>
      </trkpt>
      <trkpt lat="44.20145" lon="5.04624">
        <ele>440</ele>
        <time>2018-12-01T10:45:09 01:00</time>
      </trkpt>
      <trkpt lat="44.20154" lon="5.04618">
        <ele>439</ele>
        <time>2018-12-01T10:45:24 01:00</time>
      </trkpt>
      <trkpt lat="44.20165" lon="5.04613">
        <ele>438</ele>
        <time>2018-12-01T10:46:37 01:00</time>
      </trkpt>
      <trkpt lat="44.20174" lon="5.04608">
        <ele>437</ele>
        <time>2018-12-01T10:46:52 01:00</time>
      </trkpt>
      <trkpt lat="44.20189" lon="5.04601">
        <ele>436</ele>
        <time>2018-12-01T10:47:08 01:00</time>
      </trkpt>
      <trkpt lat="44.20198" lon="5.046">
        <ele>435</ele>
        <time>2018-12-01T10:47:24 01:00</time>
      </trkpt>
      <trkpt lat="44.20218" lon="5.04597">
        <ele>433</ele>
        <time>2018-12-01T10:47:43 01:00</time>
      </trkpt>
      <trkpt lat="44.2023" lon="5.04595">
        <ele>432</ele>
        <time>2018-12-01T10:47:58 01:00</time>
      </trkpt>
      <trkpt lat="44.20243" lon="5.04595">
        <ele>431</ele>
        <time>2018-12-01T10:48:14 01:00</time>
      </trkpt>
      <trkpt lat="44.20256" lon="5.04599">
        <ele>429</ele>
        <time>2018-12-01T10:48:29 01:00</time>
      </trkpt>
      <trkpt lat="44.20273" lon="5.04601">
        <ele>426</ele>
        <time>2018-12-01T10:48:46 01:00</time>
      </trkpt>
      <trkpt lat="44.20276" lon="5.04602">
        <ele>426</ele>
        <time>2018-12-01T10:49:00 01:00</time>
      </trkpt>
      <trkpt lat="44.20291" lon="5.04598">
        <ele>422</ele>
        <time>2018-12-01T10:49:18 01:00</time>
      </trkpt>
      <trkpt lat="44.20294" lon="5.04599">
        <ele>421</ele>
        <time>2018-12-01T10:49:33 01:00</time>
      </trkpt>
      <trkpt lat="44.20309" lon="5.04591">
        <ele>418</ele>
        <time>2018-12-01T10:49:53 01:00</time>
      </trkpt>
      <trkpt lat="44.20321" lon="5.0458">
        <ele>416</ele>
        <time>2018-12-01T10:50:06 01:00</time>
      </trkpt>
      <trkpt lat="44.20328" lon="5.04554">
        <ele>415</ele>
        <time>2018-12-01T10:50:25 01:00</time>
      </trkpt>
      <trkpt lat="44.20322" lon="5.04528">
        <ele>415</ele>
        <time>2018-12-01T10:50:44 01:00</time>
      </trkpt>
      <trkpt lat="44.20316" lon="5.04506">
        <ele>415</ele>
        <time>2018-12-01T10:51:00 01:00</time>
      </trkpt>
      <trkpt lat="44.20309" lon="5.04476">
        <ele>413</ele>
        <time>2018-12-01T10:51:21 01:00</time>
      </trkpt>
      <trkpt lat="44.20304" lon="5.04452">
        <ele>412</ele>
        <time>2018-12-01T10:51:39 01:00</time>
      </trkpt>
      <trkpt lat="44.20298" lon="5.04424">
        <ele>410</ele>
        <time>2018-12-01T10:52:00 01:00</time>
      </trkpt>
      <trkpt lat="44.20293" lon="5.04395">
        <ele>408</ele>
        <time>2018-12-01T10:52:20 01:00</time>
      </trkpt>
      <trkpt lat="44.20289" lon="5.04368">
        <ele>407</ele>
        <time>2018-12-01T10:52:39 01:00</time>
      </trkpt>
      <trkpt lat="44.20286" lon="5.04358">
        <ele>406</ele>
        <time>2018-12-01T10:52:54 01:00</time>
      </trkpt>
      <trkpt lat="44.20287" lon="5.04354">
        <ele>407</ele>
        <time>2018-12-01T10:52:57 01:00</time>
      </trkpt>
      <trkpt lat="44.20296" lon="5.04335">
        <ele>406</ele>
        <time>2018-12-01T10:53:12 01:00</time>
      </trkpt>
      <trkpt lat="44.20308" lon="5.0431">
        <ele>405</ele>
        <time>2018-12-01T10:53:32 01:00</time>
      </trkpt>
      <trkpt lat="44.20314" lon="5.04288">
        <ele>404</ele>
        <time>2018-12-01T10:53:48 01:00</time>
      </trkpt>
      <trkpt lat="44.20321" lon="5.04258">
        <ele>402</ele>
        <time>2018-12-01T10:54:08 01:00</time>
      </trkpt>
      <trkpt lat="44.20328" lon="5.04234">
        <ele>401</ele>
        <time>2018-12-01T10:54:25 01:00</time>
      </trkpt>
      <trkpt lat="44.20331" lon="5.04213">
        <ele>400</ele>
        <time>2018-12-01T10:54:39 01:00</time>
      </trkpt>
      <trkpt lat="44.20332" lon="5.04199">
        <ele>400</ele>
        <time>2018-12-01T10:54:50 01:00</time>
      </trkpt>
      <trkpt lat="44.20342" lon="5.0418">
        <ele>400</ele>
        <time>2018-12-01T10:55:09 01:00</time>
      </trkpt>
      <trkpt lat="44.20355" lon="5.04173">
        <ele>401</ele>
        <time>2018-12-01T10:55:26 01:00</time>
      </trkpt>
      <trkpt lat="44.20371" lon="5.04169">
        <ele>402</ele>
        <time>2018-12-01T10:55:42 01:00</time>
      </trkpt>
      <trkpt lat="44.20382" lon="5.0416">
        <ele>402</ele>
        <time>2018-12-01T10:55:55 01:00</time>
      </trkpt>
      <trkpt lat="44.20385" lon="5.04156">
        <ele>402</ele>
        <time>2018-12-01T10:55:59 01:00</time>
      </trkpt>
      <trkpt lat="44.20401" lon="5.04135">
        <ele>400</ele>
        <time>2018-12-01T10:56:15 01:00</time>
      </trkpt>
      <trkpt lat="44.20402" lon="5.04131">
        <ele>400</ele>
        <time>2018-12-01T10:56:17 01:00</time>
      </trkpt>
      <trkpt lat="44.20406" lon="5.04124">
        <ele>400</ele>
        <time>2018-12-01T10:56:22 01:00</time>
      </trkpt>
      <trkpt lat="44.20417" lon="5.04096">
        <ele>400</ele>
        <time>2018-12-01T10:56:41 01:00</time>
      </trkpt>
      <trkpt lat="44.20419" lon="5.0409">
        <ele>400</ele>
        <time>2018-12-01T10:56:45 01:00</time>
      </trkpt>
      <trkpt lat="44.2042" lon="5.04081">
        <ele>400</ele>
        <time>2018-12-01T10:56:53 01:00</time>
      </trkpt>
      <trkpt lat="44.20424" lon="5.04057">
        <ele>400</ele>
        <time>2018-12-01T10:57:10 01:00</time>
      </trkpt>
      <trkpt lat="44.20434" lon="5.04051">
        <ele>402</ele>
        <time>2018-12-01T10:57:22 01:00</time>
      </trkpt>
      <trkpt lat="44.2045" lon="5.04052">
        <ele>403</ele>
        <time>2018-12-01T10:57:37 01:00</time>
      </trkpt>
      <trkpt lat="44.20469" lon="5.04054">
        <ele>403</ele>
        <time>2018-12-01T10:57:54 01:00</time>
      </trkpt>
      <trkpt lat="44.20488" lon="5.04054">
        <ele>404</ele>
        <time>2018-12-01T10:58:11 01:00</time>
      </trkpt>
      <trkpt lat="44.20505" lon="5.0405">
        <ele>405</ele>
        <time>2018-12-01T10:58:29 01:00</time>
      </trkpt>
      <trkpt lat="44.20523" lon="5.04047">
        <ele>406</ele>
        <time>2018-12-01T10:58:47 01:00</time>
      </trkpt>
      <trkpt lat="44.20524" lon="5.04045">
        <ele>407</ele>
        <time>2018-12-01T10:58:49 01:00</time>
      </trkpt>
      <trkpt lat="44.20524" lon="5.04038">
        <ele>408</ele>
        <time>2018-12-01T10:58:54 01:00</time>
      </trkpt>
      <trkpt lat="44.20517" lon="5.04035">
        <ele>409</ele>
        <time>2018-12-01T10:59:03 01:00</time>
      </trkpt>
      <trkpt lat="44.20495" lon="5.04026">
        <ele>410</ele>
        <time>2018-12-01T10:59:25 01:00</time>
      </trkpt>
      <trkpt lat="44.20479" lon="5.04013">
        <ele>411</ele>
        <time>2018-12-01T10:59:42 01:00</time>
      </trkpt>
      <trkpt lat="44.20478" lon="5.04013">
        <ele>411</ele>
        <time>2018-12-01T10:59:43 01:00</time>
      </trkpt>
      <trkpt lat="44.2046" lon="5.03999">
        <ele>412</ele>
        <time>2018-12-01T11:00:02 01:00</time>
      </trkpt>
      <trkpt lat="44.20447" lon="5.03985">
        <ele>413</ele>
        <time>2018-12-01T11:00:18 01:00</time>
      </trkpt>
      <trkpt lat="44.20433" lon="5.03965">
        <ele>412</ele>
        <time>2018-12-01T11:00:37 01:00</time>
      </trkpt>
      <trkpt lat="44.20428" lon="5.0394">
        <ele>412</ele>
        <time>2018-12-01T11:00:53 01:00</time>
      </trkpt>
      <trkpt lat="44.20432" lon="5.03916">
        <ele>413</ele>
        <time>2018-12-01T11:01:09 01:00</time>
      </trkpt>
      <trkpt lat="44.20445" lon="5.03896">
        <ele>415</ele>
        <time>2018-12-01T11:01:28 01:00</time>
      </trkpt>
      <trkpt lat="44.20449" lon="5.03894">
        <ele>416</ele>
        <time>2018-12-01T11:01:32 01:00</time>
      </trkpt>
      <trkpt lat="44.20468" lon="5.03878">
        <ele>418</ele>
        <time>2018-12-01T11:01:50 01:00</time>
      </trkpt>
      <trkpt lat="44.20473" lon="5.03875">
        <ele>419</ele>
        <time>2018-12-01T11:01:55 01:00</time>
      </trkpt>
      <trkpt lat="44.2049" lon="5.03866">
        <ele>421</ele>
        <time>2018-12-01T11:02:12 01:00</time>
      </trkpt>
      <trkpt lat="44.20506" lon="5.03854">
        <ele>422</ele>
        <time>2018-12-01T11:02:30 01:00</time>
      </trkpt>
      <trkpt lat="44.20509" lon="5.03852">
        <ele>422</ele>
        <time>2018-12-01T11:02:33 01:00</time>
      </trkpt>
      <trkpt lat="44.20522" lon="5.03842">
        <ele>422</ele>
        <time>2018-12-01T11:02:50 01:00</time>
      </trkpt>
      <trkpt lat="44.20534" lon="5.0383">
        <ele>422</ele>
        <time>2018-12-01T11:03:05 01:00</time>
      </trkpt>
      <trkpt lat="44.20546" lon="5.03813">
        <ele>421</ele>
        <time>2018-12-01T11:03:22 01:00</time>
      </trkpt>
      <trkpt lat="44.20551" lon="5.03789">
        <ele>418</ele>
        <time>2018-12-01T11:03:40 01:00</time>
      </trkpt>
      <trkpt lat="44.20553" lon="5.03759">
        <ele>419</ele>
        <time>2018-12-01T11:04:00 01:00</time>
      </trkpt>
      <trkpt lat="44.20555" lon="5.03733">
        <ele>422</ele>
        <time>2018-12-01T11:04:17 01:00</time>
      </trkpt>
      <trkpt lat="44.20564" lon="5.03706">
        <ele>424</ele>
        <time>2018-12-01T11:04:34 01:00</time>
      </trkpt>
      <trkpt lat="44.20579" lon="5.03691">
        <ele>425</ele>
        <time>2018-12-01T11:04:52 01:00</time>
      </trkpt>
      <trkpt lat="44.20597" lon="5.03678">
        <ele>424</ele>
        <time>2018-12-01T11:05:09 01:00</time>
      </trkpt>
      <trkpt lat="44.20622" lon="5.03665">
        <ele>422</ele>
        <time>2018-12-01T11:05:32 01:00</time>
      </trkpt>
      <trkpt lat="44.20637" lon="5.03651">
        <ele>422</ele>
        <time>2018-12-01T11:05:50 01:00</time>
      </trkpt>
      <trkpt lat="44.20651" lon="5.03637">
        <ele>421</ele>
        <time>2018-12-01T11:06:06 01:00</time>
      </trkpt>
      <trkpt lat="44.20664" lon="5.03632">
        <ele>420</ele>
        <time>2018-12-01T11:06:18 01:00</time>
      </trkpt>
      <trkpt lat="44.20683" lon="5.0363">
        <ele>418</ele>
        <time>2018-12-01T11:06:35 01:00</time>
      </trkpt>
      <trkpt lat="44.20706" lon="5.0363">
        <ele>417</ele>
        <time>2018-12-01T11:06:53 01:00</time>
      </trkpt>
      <trkpt lat="44.20713" lon="5.03631">
        <ele>416</ele>
        <time>2018-12-01T11:06:58 01:00</time>
      </trkpt>
      <trkpt lat="44.20719" lon="5.03631">
        <ele>416</ele>
        <time>2018-12-01T11:07:03 01:00</time>
      </trkpt>
      <trkpt lat="44.20737" lon="5.03627">
        <ele>414</ele>
        <time>2018-12-01T11:07:19 01:00</time>
      </trkpt>
      <trkpt lat="44.2074" lon="5.03625">
        <ele>413</ele>
        <time>2018-12-01T11:07:22 01:00</time>
      </trkpt>
      <trkpt lat="44.20752" lon="5.03623">
        <ele>412</ele>
        <time>2018-12-01T11:07:37 01:00</time>
      </trkpt>
      <trkpt lat="44.20767" lon="5.0362">
        <ele>410</ele>
        <time>2018-12-01T11:07:53 01:00</time>
      </trkpt>
      <trkpt lat="44.20774" lon="5.03619">
        <ele>409</ele>
        <time>2018-12-01T11:08:00 01:00</time>
      </trkpt>
      <trkpt lat="44.20795" lon="5.03618">
        <ele>408</ele>
        <time>2018-12-01T11:08:19 01:00</time>
      </trkpt>
      <trkpt lat="44.20812" lon="5.0362">
        <ele>406</ele>
        <time>2018-12-01T11:08:35 01:00</time>
      </trkpt>
      <trkpt lat="44.20834" lon="5.03622">
        <ele>404</ele>
        <time>2018-12-01T11:08:53 01:00</time>
      </trkpt>
      <trkpt lat="44.20857" lon="5.03622">
        <ele>402</ele>
        <time>2018-12-01T11:09:13 01:00</time>
      </trkpt>
      <trkpt lat="44.20874" lon="5.03619">
        <ele>401</ele>
        <time>2018-12-01T11:09:30 01:00</time>
      </trkpt>
      <trkpt lat="44.20892" lon="5.03615">
        <ele>400</ele>
        <time>2018-12-01T11:09:46 01:00</time>
      </trkpt>
      <trkpt lat="44.20913" lon="5.03609">
        <ele>399</ele>
        <time>2018-12-01T11:10:05 01:00</time>
      </trkpt>
      <trkpt lat="44.20933" lon="5.03603">
        <ele>398</ele>
        <time>2018-12-01T11:10:23 01:00</time>
      </trkpt>
      <trkpt lat="44.20955" lon="5.036">
        <ele>398</ele>
        <time>2018-12-01T11:10:41 01:00</time>
      </trkpt>
      <trkpt lat="44.2098" lon="5.03598">
        <ele>399</ele>
        <time>2018-12-01T11:11:03 01:00</time>
      </trkpt>
      <trkpt lat="44.20988" lon="5.03595">
        <ele>399</ele>
        <time>2018-12-01T11:11:16 01:00</time>
      </trkpt>
      <trkpt lat="44.20998" lon="5.0359">
        <ele>398</ele>
        <time>2018-12-01T11:11:31 01:00</time>
      </trkpt>
      <trkpt lat="44.21019" lon="5.03579">
        <ele>397</ele>
        <time>2018-12-01T11:11:51 01:00</time>
      </trkpt>
      <trkpt lat="44.21031" lon="5.03571">
        <ele>395</ele>
        <time>2018-12-01T11:12:02 01:00</time>
      </trkpt>
      <trkpt lat="44.21048" lon="5.03562">
        <ele>392</ele>
        <time>2018-12-01T11:12:20 01:00</time>
      </trkpt>
      <trkpt lat="44.21066" lon="5.03552">
        <ele>390</ele>
        <time>2018-12-01T11:12:39 01:00</time>
      </trkpt>
      <trkpt lat="44.21087" lon="5.03541">
        <ele>389</ele>
        <time>2018-12-01T11:13:00 01:00</time>
      </trkpt>
      <trkpt lat="44.21105" lon="5.0353">
        <ele>387</ele>
        <time>2018-12-01T11:13:17 01:00</time>
      </trkpt>
      <trkpt lat="44.21127" lon="5.03518">
        <ele>383</ele>
        <time>2018-12-01T11:13:36 01:00</time>
      </trkpt>
      <trkpt lat="44.21146" lon="5.0352">
        <ele>382</ele>
        <time>2018-12-01T11:13:55 01:00</time>
      </trkpt>
      <trkpt lat="44.21164" lon="5.03536">
        <ele>381</ele>
        <time>2018-12-01T11:14:16 01:00</time>
      </trkpt>
      <trkpt lat="44.21181" lon="5.03556">
        <ele>379</ele>
        <time>2018-12-01T11:14:38 01:00</time>
      </trkpt>
      <trkpt lat="44.21195" lon="5.03571">
        <ele>375</ele>
        <time>2018-12-01T11:14:57 01:00</time>
      </trkpt>
      <trkpt lat="44.21211" lon="5.03583">
        <ele>371</ele>
        <time>2018-12-01T11:15:17 01:00</time>
      </trkpt>
      <trkpt lat="44.2123" lon="5.03586">
        <ele>368</ele>
        <time>2018-12-01T11:15:36 01:00</time>
      </trkpt>
      <trkpt lat="44.21248" lon="5.03576">
        <ele>368</ele>
        <time>2018-12-01T11:15:56 01:00</time>
      </trkpt>
      <trkpt lat="44.21252" lon="5.03573">
        <ele>367</ele>
        <time>2018-12-01T11:16:01 01:00</time>
      </trkpt>
      <trkpt lat="44.21265" lon="5.03563">
        <ele>365</ele>
        <time>2018-12-01T11:16:20 01:00</time>
      </trkpt>
      <trkpt lat="44.21276" lon="5.0355">
        <ele>363</ele>
        <time>2018-12-01T11:17:00 01:00</time>
      </trkpt>
      <trkpt lat="44.21293" lon="5.03529">
        <ele>361</ele>
        <time>2018-12-01T11:17:12 01:00</time>
      </trkpt>
      <trkpt lat="44.21295" lon="5.03526">
        <ele>361</ele>
        <time>2018-12-01T11:17:16 01:00</time>
      </trkpt>
      <trkpt lat="44.21305" lon="5.03514">
        <ele>360</ele>
        <time>2018-12-01T11:17:28 01:00</time>
      </trkpt>
      <trkpt lat="44.21323" lon="5.03489">
        <ele>360</ele>
        <time>2018-12-01T11:17:51 01:00</time>
      </trkpt>
      <trkpt lat="44.21346" lon="5.03462">
        <ele>360</ele>
        <time>2018-12-01T11:18:15 01:00</time>
      </trkpt>
      <trkpt lat="44.21364" lon="5.03441">
        <ele>360</ele>
        <time>2018-12-01T11:18:35 01:00</time>
      </trkpt>
      <trkpt lat="44.2138" lon="5.03421">
        <ele>360</ele>
        <time>2018-12-01T11:18:52 01:00</time>
      </trkpt>
      <trkpt lat="44.21399" lon="5.03398">
        <ele>360</ele>
        <time>2018-12-01T11:19:13 01:00</time>
      </trkpt>
      <trkpt lat="44.21417" lon="5.03385">
        <ele>359</ele>
        <time>2018-12-01T11:19:31 01:00</time>
      </trkpt>
      <trkpt lat="44.21438" lon="5.03371">
        <ele>353</ele>
        <time>2018-12-01T11:19:50 01:00</time>
      </trkpt>
      <trkpt lat="44.21458" lon="5.03358">
        <ele>351</ele>
        <time>2018-12-01T11:20:08 01:00</time>
      </trkpt>
      <trkpt lat="44.21478" lon="5.03352">
        <ele>349</ele>
        <time>2018-12-01T11:20:27 01:00</time>
      </trkpt>
      <trkpt lat="44.21498" lon="5.0336">
        <ele>346</ele>
        <time>2018-12-01T11:20:47 01:00</time>
      </trkpt>
      <trkpt lat="44.2151" lon="5.03375">
        <ele>342</ele>
        <time>2018-12-01T11:21:04 01:00</time>
      </trkpt>
      <trkpt lat="44.2152" lon="5.03379">
        <ele>340</ele>
        <time>2018-12-01T11:21:17 01:00</time>
      </trkpt>
      <trkpt lat="44.2154" lon="5.03372">
        <ele>338</ele>
        <time>2018-12-01T11:21:35 01:00</time>
      </trkpt>
      <trkpt lat="44.21558" lon="5.03358">
        <ele>338</ele>
        <time>2018-12-01T11:21:54 01:00</time>
      </trkpt>
      <trkpt lat="44.21568" lon="5.03342">
        <ele>337</ele>
        <time>2018-12-01T11:22:09 01:00</time>
      </trkpt>
      <trkpt lat="44.21568" lon="5.0334">
        <ele>337</ele>
        <time>2018-12-01T11:22:10 01:00</time>
      </trkpt>
      <trkpt lat="44.21559" lon="5.03329">
        <ele>339</ele>
        <time>2018-12-01T11:22:23 01:00</time>
      </trkpt>
      <trkpt lat="44.21558" lon="5.03328">
        <ele>339</ele>
        <time>2018-12-01T11:22:24 01:00</time>
      </trkpt>
      <trkpt lat="44.21546" lon="5.03314">
        <ele>339</ele>
        <time>2018-12-01T11:22:40 01:00</time>
      </trkpt>
      <trkpt lat="44.21534" lon="5.03299">
        <ele>339</ele>
        <time>2018-12-01T11:22:56 01:00</time>
      </trkpt>
      <trkpt lat="44.21518" lon="5.0328">
        <ele>337</ele>
        <time>2018-12-01T11:23:16 01:00</time>
      </trkpt>
      <trkpt lat="44.21504" lon="5.03266">
        <ele>336</ele>
        <time>2018-12-01T11:23:32 01:00</time>
      </trkpt>
      <trkpt lat="44.21488" lon="5.03251">
        <ele>335</ele>
        <time>2018-12-01T11:23:48 01:00</time>
      </trkpt>
      <trkpt lat="44.21486" lon="5.03249">
        <ele>335</ele>
        <time>2018-12-01T11:23:50 01:00</time>
      </trkpt>
      <trkpt lat="44.21474" lon="5.03238">
        <ele>334</ele>
        <time>2018-12-01T11:24:04 01:00</time>
      </trkpt>
      <trkpt lat="44.21473" lon="5.03237">
        <ele>334</ele>
        <time>2018-12-01T11:24:05 01:00</time>
      </trkpt>
      <trkpt lat="44.21469" lon="5.03211">
        <ele>328</ele>
        <time>2018-12-01T11:24:21 01:00</time>
      </trkpt>
      <trkpt lat="44.21472" lon="5.03199">
        <ele>324</ele>
        <time>2018-12-01T11:24:30 01:00</time>
      </trkpt>
      <trkpt lat="44.21472" lon="5.03197">
        <ele>324</ele>
        <time>2018-12-01T11:24:31 01:00</time>
      </trkpt>
      <trkpt lat="44.21477" lon="5.0319">
        <ele>321</ele>
        <time>2018-12-01T11:24:37 01:00</time>
      </trkpt>
      <trkpt lat="44.21499" lon="5.03168">
        <ele>313</ele>
        <time>2018-12-01T11:25:00 01:00</time>
      </trkpt>
      <trkpt lat="44.21496" lon="5.03149">
        <ele>312</ele>
        <time>2018-12-01T11:25:17 01:00</time>
      </trkpt>
      <trkpt lat="44.21483" lon="5.03136">
        <ele>313</ele>
        <time>2018-12-01T11:25:33 01:00</time>
      </trkpt>
      <trkpt lat="44.2148" lon="5.03133">
        <ele>313</ele>
        <time>2018-12-01T11:25:37 01:00</time>
      </trkpt>
      <trkpt lat="44.21467" lon="5.03114">
        <ele>312</ele>
        <time>2018-12-01T11:25:53 01:00</time>
      </trkpt>
      <trkpt lat="44.21463" lon="5.0311">
        <ele>313</ele>
        <time>2018-12-01T11:25:58 01:00</time>
      </trkpt>
      <trkpt lat="44.21447" lon="5.03102">
        <ele>315</ele>
        <time>2018-12-01T11:26:13 01:00</time>
      </trkpt>
      <trkpt lat="44.21428" lon="5.03092">
        <ele>316</ele>
        <time>2018-12-01T11:27:24 01:00</time>
      </trkpt>
      <trkpt lat="44.2142" lon="5.03087">
        <ele>317</ele>
        <time>2018-12-01T11:27:33 01:00</time>
      </trkpt>
      <trkpt lat="44.21403" lon="5.03075">
        <ele>313</ele>
        <time>2018-12-01T11:27:51 01:00</time>
      </trkpt>
      <trkpt lat="44.214" lon="5.03071">
        <ele>312</ele>
        <time>2018-12-01T11:28:08 01:00</time>
      </trkpt>
      <trkpt lat="44.21392" lon="5.03065">
        <ele>310</ele>
        <time>2018-12-01T11:28:24 01:00</time>
      </trkpt>
      <trkpt lat="44.21376" lon="5.03056">
        <ele>306</ele>
        <time>2018-12-01T11:28:41 01:00</time>
      </trkpt>
      <trkpt lat="44.21369" lon="5.03054">
        <ele>304</ele>
        <time>2018-12-01T11:28:57 01:00</time>
      </trkpt>
      <trkpt lat="44.21359" lon="5.03048">
        <ele>303</ele>
        <time>2018-12-01T11:29:10 01:00</time>
      </trkpt>
      <trkpt lat="44.21344" lon="5.03042">
        <ele>302</ele>
        <time>2018-12-01T11:29:27 01:00</time>
      </trkpt>
      <trkpt lat="44.21338" lon="5.03036">
        <ele>301</ele>
        <time>2018-12-01T11:29:37 01:00</time>
      </trkpt>
      <trkpt lat="44.21334" lon="5.03037">
        <ele>300</ele>
        <time>2018-12-01T11:29:53 01:00</time>
      </trkpt>
      <trkpt lat="44.21329" lon="5.03035">
        <ele>300</ele>
        <time>2018-12-01T11:30:06 01:00</time>
      </trkpt>
      <trkpt lat="44.21327" lon="5.03034">
        <ele>300</ele>
        <time>2018-12-01T11:30:08 01:00</time>
      </trkpt>
      <trkpt lat="44.21308" lon="5.03031">
        <ele>299</ele>
        <time>2018-12-01T11:30:26 01:00</time>
      </trkpt>
      <trkpt lat="44.21286" lon="5.0303">
        <ele>299</ele>
        <time>2018-12-01T11:30:47 01:00</time>
      </trkpt>
      <trkpt lat="44.21271" lon="5.03026">
        <ele>297</ele>
        <time>2018-12-01T11:31:03 01:00</time>
      </trkpt>
      <trkpt lat="44.21259" lon="5.03018">
        <ele>295</ele>
        <time>2018-12-01T11:31:16 01:00</time>
      </trkpt>
      <trkpt lat="44.21244" lon="5.03008">
        <ele>292</ele>
        <time>2018-12-01T11:31:31 01:00</time>
      </trkpt>
      <trkpt lat="44.21239" lon="5.03004">
        <ele>291</ele>
        <time>2018-12-01T11:31:36 01:00</time>
      </trkpt>
      <trkpt lat="44.21229" lon="5.02996">
        <ele>290</ele>
        <time>2018-12-01T11:31:46 01:00</time>
      </trkpt>
      <trkpt lat="44.21225" lon="5.02994">
        <ele>290</ele>
        <time>2018-12-01T11:31:49 01:00</time>
      </trkpt>
      <trkpt lat="44.21208" lon="5.02987">
        <ele>289</ele>
        <time>2018-12-01T11:32:04 01:00</time>
      </trkpt>
      <trkpt lat="44.21186" lon="5.0298">
        <ele>286</ele>
        <time>2018-12-01T11:32:22 01:00</time>
      </trkpt>
      <trkpt lat="44.21169" lon="5.02976">
        <ele>282</ele>
        <time>2018-12-01T11:32:38 01:00</time>
      </trkpt>
      <trkpt lat="44.21146" lon="5.02975">
        <ele>281</ele>
        <time>2018-12-01T11:32:58 01:00</time>
      </trkpt>
      <trkpt lat="44.21128" lon="5.02977">
        <ele>282</ele>
        <time>2018-12-01T11:33:15 01:00</time>
      </trkpt>
      <trkpt lat="44.21105" lon="5.02978">
        <ele>281</ele>
        <time>2018-12-01T11:33:35 01:00</time>
      </trkpt>
      <trkpt lat="44.21089" lon="5.02974">
        <ele>280</ele>
        <time>2018-12-01T11:33:50 01:00</time>
      </trkpt>
      <trkpt lat="44.21071" lon="5.02969">
        <ele>279</ele>
        <time>2018-12-01T11:34:07 01:00</time>
      </trkpt>
      <trkpt lat="44.21052" lon="5.02959">
        <ele>278</ele>
        <time>2018-12-01T11:34:25 01:00</time>
      </trkpt>
      <trkpt lat="44.21032" lon="5.02949">
        <ele>276</ele>
        <time>2018-12-01T11:34:44 01:00</time>
      </trkpt>
      <trkpt lat="44.21011" lon="5.02943">
        <ele>274</ele>
        <time>2018-12-01T11:35:02 01:00</time>
      </trkpt>
      <trkpt lat="44.20994" lon="5.0294">
        <ele>273</ele>
        <time>2018-12-01T11:35:17 01:00</time>
      </trkpt>
      <trkpt lat="44.20973" lon="5.02936">
        <ele>273</ele>
        <time>2018-12-01T11:35:36 01:00</time>
      </trkpt>
      <trkpt lat="44.20954" lon="5.02934">
        <ele>272</ele>
        <time>2018-12-01T11:35:54 01:00</time>
      </trkpt>
      <trkpt lat="44.20934" lon="5.02926">
        <ele>271</ele>
        <time>2018-12-01T11:36:13 01:00</time>
      </trkpt>
      <trkpt lat="44.20928" lon="5.02923">
        <ele>271</ele>
        <time>2018-12-01T11:36:19 01:00</time>
      </trkpt>
      <trkpt lat="44.20908" lon="5.02919">
        <ele>270</ele>
        <time>2018-12-01T11:36:36 01:00</time>
      </trkpt>
      <trkpt lat="44.20887" lon="5.02909">
        <ele>268</ele>
        <time>2018-12-01T11:36:55 01:00</time>
      </trkpt>
      <trkpt lat="44.20879" lon="5.02903">
        <ele>266</ele>
        <time>2018-12-01T11:37:09 01:00</time>
      </trkpt>
      <trkpt lat="44.20879" lon="5.02902">
        <ele>266</ele>
        <time>2018-12-01T11:37:10 01:00</time>
      </trkpt>
      <trkpt lat="44.20878" lon="5.02899">
        <ele>266</ele>
        <time>2018-12-01T11:37:12 01:00</time>
      </trkpt>
      <trkpt lat="44.20875" lon="5.02892">
        <ele>265</ele>
        <time>2018-12-01T11:37:18 01:00</time>
      </trkpt>
      <trkpt lat="44.20866" lon="5.02868">
        <ele>263</ele>
        <time>2018-12-01T11:37:35 01:00</time>
      </trkpt>
      <trkpt lat="44.20856" lon="5.02852">
        <ele>262</ele>
        <time>2018-12-01T11:37:48 01:00</time>
      </trkpt>
      <trkpt lat="44.20847" lon="5.02825">
        <ele>259</ele>
        <time>2018-12-01T11:38:06 01:00</time>
      </trkpt>
      <trkpt lat="44.20844" lon="5.02794">
        <ele>256</ele>
        <time>2018-12-01T11:38:25 01:00</time>
      </trkpt>
      <trkpt lat="44.20844" lon="5.02793">
        <ele>256</ele>
        <time>2018-12-01T11:38:26 01:00</time>
      </trkpt>
      <trkpt lat="44.20857" lon="5.02768">
        <ele>260</ele>
        <time>2018-12-01T11:38:46 01:00</time>
      </trkpt>
      <trkpt lat="44.20857" lon="5.02731">
        <ele>261</ele>
        <time>2018-12-01T11:39:07 01:00</time>
      </trkpt>
      <trkpt lat="44.20851" lon="5.0271">
        <ele>259</ele>
        <time>2018-12-01T11:39:22 01:00</time>
      </trkpt>
      <trkpt lat="44.2084" lon="5.02681">
        <ele>254</ele>
        <time>2018-12-01T11:39:42 01:00</time>
      </trkpt>
      <trkpt lat="44.20837" lon="5.02647">
        <ele>254</ele>
        <time>2018-12-01T11:40:04 01:00</time>
      </trkpt>
      <trkpt lat="44.20834" lon="5.0262">
        <ele>253</ele>
        <time>2018-12-01T11:40:22 01:00</time>
      </trkpt>
      <trkpt lat="44.2083" lon="5.02594">
        <ele>252</ele>
        <time>2018-12-01T11:40:39 01:00</time>
      </trkpt>
      <trkpt lat="44.20829" lon="5.02567">
        <ele>252</ele>
        <time>2018-12-01T11:40:58 01:00</time>
      </trkpt>
      <trkpt lat="44.20826" lon="5.02549">
        <ele>251</ele>
        <time>2018-12-01T11:41:14 01:00</time>
      </trkpt>
      <trkpt lat="44.20822" lon="5.02529">
        <ele>249</ele>
        <time>2018-12-01T11:41:30 01:00</time>
      </trkpt>
      <trkpt lat="44.20818" lon="5.025">
        <ele>248</ele>
        <time>2018-12-01T11:41:49 01:00</time>
      </trkpt>
      <trkpt lat="44.20815" lon="5.02471">
        <ele>246</ele>
        <time>2018-12-01T11:42:09 01:00</time>
      </trkpt>
      <trkpt lat="44.20811" lon="5.02454">
        <ele>244</ele>
        <time>2018-12-01T11:42:26 01:00</time>
      </trkpt>
    </trkseg>
  </trk>
</gpx>